<?xml version="1.0" encoding="UTF-8"?>
<gpx version="1.1" creator="2bulu-scraper" xmlns="http://www.topografix.com/GPX/1/1">
  <metadata><name>罗龙金竹山脊线</name><desc>source: 2bulu.com trackId=80756499; exported 2026-09-01T19:15:45.917Z</desc>
    <bounds minlat="28.8180137" minlon="104.8320509" maxlat="28.8436963" maxlon="104.860003"/>
    <link href="https://www.2bulu.com/track/t-cgd0h%252BU8Pn%252Fp%252FR2KBg5Tzw%253D%253D.htm"><text>2bulu 源页面</text></link>
  </metadata>
  <wpt lat="28.8187892" lon="104.8599163"><ele>414</ele><name>
        </name></wpt>
  <wpt lat="28.8187877" lon="104.8529018"><ele>422</ele><name>
        </name></wpt>
  <wpt lat="28.8208944" lon="104.8486116"><ele>412</ele><name>
        </name></wpt>
  <wpt lat="28.820561" lon="104.8474468"><ele>410</ele><name>
        </name></wpt>
  <wpt lat="28.8206341" lon="104.8450793"><ele>387</ele><name>
        </name></wpt>
  <wpt lat="28.8205779" lon="104.8447457"><ele>379</ele><name>
        </name></wpt>
  <wpt lat="28.8197622" lon="104.8443893"><ele>364</ele><name>
        </name></wpt>
  <wpt lat="28.8197361" lon="104.8439334"><ele>362</ele><name>
        </name></wpt>
  <wpt lat="28.8197746" lon="104.8437265"><ele>368</ele><name>
        </name></wpt>
  <wpt lat="28.8197746" lon="104.8437265"><ele>368</ele><name>
        </name></wpt>
  <wpt lat="28.8198122" lon="104.84328"><ele>374</ele><name>
        </name></wpt>
  <wpt lat="28.8202046" lon="104.8414198"><ele>367</ele><name>
        </name></wpt>
  <wpt lat="28.8211976" lon="104.84069"><ele>357</ele><name>
        </name></wpt>
  <wpt lat="28.8247862" lon="104.8393076"><ele>386</ele><name>
        </name></wpt>
  <wpt lat="28.8247862" lon="104.8393076"><ele>386</ele><name>
        </name></wpt>
  <wpt lat="28.8251286" lon="104.8391373"><ele>384</ele><name>
        </name></wpt>
  <wpt lat="28.8254916" lon="104.837548"><ele>376</ele><name>
        </name></wpt>
  <wpt lat="28.8288159" lon="104.8320617"><ele>379</ele><name>
        </name></wpt>
  <wpt lat="28.8276485" lon="104.8325079"><ele>364</ele><name>
        </name></wpt>
  <wpt lat="28.8276485" lon="104.8325079"><ele>364</ele><name>
        </name></wpt>
  <wpt lat="28.8273618" lon="104.8323327"><ele>372</ele><name>
        </name></wpt>
  <wpt lat="28.831564" lon="104.833429"><ele>365</ele><name>
        </name></wpt>
  <wpt lat="28.8332568" lon="104.835817"><ele>370</ele><name>
        </name></wpt>
  <wpt lat="28.8346556" lon="104.8375964"><ele>353</ele><name>
        </name></wpt>
  <wpt lat="28.8348868" lon="104.8377791"><ele>359</ele><name>
        </name></wpt>
  <wpt lat="28.8372455" lon="104.8400431"><ele>367</ele><name>
        </name></wpt>
  <wpt lat="28.8382168" lon="104.8410302"><ele>365</ele><name>
        </name></wpt>
  <wpt lat="28.8417175" lon="104.839784"><ele>363</ele><name>  
        </name></wpt>
  <wpt lat="28.8429533" lon="104.8403755"><ele>368</ele><name>
        </name></wpt>
  <wpt lat="28.843627" lon="104.8408775"><ele>364</ele><name>
        </name></wpt>
  <trk><name>罗龙金竹山脊线</name>
      <trkseg>
        <trkpt lat="28.8187892" lon="104.8599163"><ele>413.71</ele><time>2026-03-20T18:13:21.000Z</time></trkpt>
        <trkpt lat="28.8187294" lon="104.8599656"><ele>413.71</ele><time>2026-03-20T18:13:35.000Z</time></trkpt>
        <trkpt lat="28.8186327" lon="104.860003"><ele>413.7</ele><time>2026-03-20T18:13:47.000Z</time></trkpt>
        <trkpt lat="28.8185364" lon="104.8600019"><ele>413.39</ele><time>2026-03-20T18:13:57.000Z</time></trkpt>
        <trkpt lat="28.8184406" lon="104.8599772"><ele>413.74</ele><time>2026-03-20T18:14:07.000Z</time></trkpt>
        <trkpt lat="28.8183516" lon="104.8599136"><ele>414.61</ele><time>2026-03-20T18:14:17.000Z</time></trkpt>
        <trkpt lat="28.8182964" lon="104.8598219"><ele>414.68</ele><time>2026-03-20T18:14:27.000Z</time></trkpt>
        <trkpt lat="28.8182282" lon="104.8597424"><ele>415.08</ele><time>2026-03-20T18:14:37.000Z</time></trkpt>
        <trkpt lat="28.8181622" lon="104.8596645"><ele>416.55</ele><time>2026-03-20T18:14:51.000Z</time></trkpt>
        <trkpt lat="28.8180967" lon="104.8595837"><ele>417.61</ele><time>2026-03-20T18:15:02.000Z</time></trkpt>
        <trkpt lat="28.8180452" lon="104.859486"><ele>418.25</ele><time>2026-03-20T18:15:11.000Z</time></trkpt>
        <trkpt lat="28.8180256" lon="104.8593803"><ele>419.67</ele><time>2026-03-20T18:15:21.000Z</time></trkpt>
        <trkpt lat="28.8180163" lon="104.8592701"><ele>421.18</ele><time>2026-03-20T18:15:31.000Z</time></trkpt>
        <trkpt lat="28.8180137" lon="104.8591574"><ele>422.16</ele><time>2026-03-20T18:15:41.000Z</time></trkpt>
        <trkpt lat="28.8180206" lon="104.8590401"><ele>422.1</ele><time>2026-03-20T18:15:51.000Z</time></trkpt>
        <trkpt lat="28.8180421" lon="104.858927"><ele>421.73</ele><time>2026-03-20T18:16:01.000Z</time></trkpt>
        <trkpt lat="28.8180629" lon="104.8588038"><ele>421.13</ele><time>2026-03-20T18:16:11.000Z</time></trkpt>
        <trkpt lat="28.8180706" lon="104.8586904"><ele>421.01</ele><time>2026-03-20T18:16:19.000Z</time></trkpt>
        <trkpt lat="28.8180753" lon="104.8585793"><ele>421.04</ele><time>2026-03-20T18:16:27.000Z</time></trkpt>
        <trkpt lat="28.8180861" lon="104.8584572"><ele>421.6</ele><time>2026-03-20T18:16:38.000Z</time></trkpt>
        <trkpt lat="28.81809" lon="104.8583441"><ele>422.29</ele><time>2026-03-20T18:16:45.000Z</time></trkpt>
        <trkpt lat="28.8180894" lon="104.8582365"><ele>423.06</ele><time>2026-03-20T18:16:53.000Z</time></trkpt>
        <trkpt lat="28.8180774" lon="104.8581783"><ele>424.06</ele><time>2026-03-20T18:16:59.000Z</time></trkpt>
        <trkpt lat="28.8180787" lon="104.858093"><ele>424.66</ele><time>2026-03-20T18:17:35.000Z</time></trkpt>
        <trkpt lat="28.8180809" lon="104.8579885"><ele>425.06</ele><time>2026-03-20T18:17:43.000Z</time></trkpt>
        <trkpt lat="28.818081" lon="104.8578782"><ele>425.43</ele><time>2026-03-20T18:17:52.000Z</time></trkpt>
        <trkpt lat="28.8180711" lon="104.8577615"><ele>426.26</ele><time>2026-03-20T18:17:59.000Z</time></trkpt>
        <trkpt lat="28.8180601" lon="104.8576376"><ele>427.2</ele><time>2026-03-20T18:18:07.000Z</time></trkpt>
        <trkpt lat="28.8180695" lon="104.8575209"><ele>428.15</ele><time>2026-03-20T18:18:15.000Z</time></trkpt>
        <trkpt lat="28.8181383" lon="104.8574473"><ele>429.25</ele><time>2026-03-20T18:18:25.000Z</time></trkpt>
        <trkpt lat="28.8181849" lon="104.8573568"><ele>428.8</ele><time>2026-03-20T18:18:33.000Z</time></trkpt>
        <trkpt lat="28.8182105" lon="104.8572583"><ele>428.95</ele><time>2026-03-20T18:18:42.000Z</time></trkpt>
        <trkpt lat="28.8182262" lon="104.8571531"><ele>429.39</ele><time>2026-03-20T18:18:49.000Z</time></trkpt>
        <trkpt lat="28.8182013" lon="104.8570486"><ele>429.95</ele><time>2026-03-20T18:18:57.000Z</time></trkpt>
        <trkpt lat="28.8181606" lon="104.8569476"><ele>430.64</ele><time>2026-03-20T18:19:05.000Z</time></trkpt>
        <trkpt lat="28.8181446" lon="104.8568427"><ele>431.07</ele><time>2026-03-20T18:19:13.000Z</time></trkpt>
        <trkpt lat="28.8181493" lon="104.8567397"><ele>431.44</ele><time>2026-03-20T18:19:21.000Z</time></trkpt>
        <trkpt lat="28.8181099" lon="104.8566495"><ele>431.59</ele><time>2026-03-20T18:19:29.000Z</time></trkpt>
        <trkpt lat="28.8180712" lon="104.8565451"><ele>431.28</ele><time>2026-03-20T18:19:39.000Z</time></trkpt>
        <trkpt lat="28.81807" lon="104.856516"><ele>431.26</ele><time>2026-03-20T18:19:43.000Z</time></trkpt>
        <trkpt lat="28.8181247" lon="104.856448"><ele>431.26</ele><time>2026-03-20T18:19:57.000Z</time></trkpt>
        <trkpt lat="28.8181898" lon="104.8563657"><ele>431</ele><time>2026-03-20T18:20:05.000Z</time></trkpt>
        <trkpt lat="28.8182314" lon="104.8562613"><ele>431.2</ele><time>2026-03-20T18:20:13.000Z</time></trkpt>
        <trkpt lat="28.8182316" lon="104.8561484"><ele>431.56</ele><time>2026-03-20T18:20:21.000Z</time></trkpt>
        <trkpt lat="28.8182103" lon="104.8560324"><ele>431.84</ele><time>2026-03-20T18:20:29.000Z</time></trkpt>
        <trkpt lat="28.8181926" lon="104.8559066"><ele>432.25</ele><time>2026-03-20T18:20:37.000Z</time></trkpt>
        <trkpt lat="28.8181941" lon="104.8557865"><ele>432.81</ele><time>2026-03-20T18:20:45.000Z</time></trkpt>
        <trkpt lat="28.8182065" lon="104.8556782"><ele>433.08</ele><time>2026-03-20T18:20:53.000Z</time></trkpt>
        <trkpt lat="28.8182431" lon="104.8555698"><ele>432.81</ele><time>2026-03-20T18:21:03.000Z</time></trkpt>
        <trkpt lat="28.8182968" lon="104.8554784"><ele>432.51</ele><time>2026-03-20T18:21:11.000Z</time></trkpt>
        <trkpt lat="28.8183578" lon="104.855394"><ele>432.51</ele><time>2026-03-20T18:21:19.000Z</time></trkpt>
        <trkpt lat="28.8184198" lon="104.8553081"><ele>432.23</ele><time>2026-03-20T18:21:27.000Z</time></trkpt>
        <trkpt lat="28.8184543" lon="104.8552089"><ele>432.34</ele><time>2026-03-20T18:21:35.000Z</time></trkpt>
        <trkpt lat="28.8184725" lon="104.8551003"><ele>432.27</ele><time>2026-03-20T18:21:43.000Z</time></trkpt>
        <trkpt lat="28.8184906" lon="104.8549891"><ele>432.15</ele><time>2026-03-20T18:21:51.000Z</time></trkpt>
        <trkpt lat="28.8185049" lon="104.854877"><ele>432.05</ele><time>2026-03-20T18:21:59.000Z</time></trkpt>
        <trkpt lat="28.8185255" lon="104.8547681"><ele>431.78</ele><time>2026-03-20T18:22:07.000Z</time></trkpt>
        <trkpt lat="28.8185518" lon="104.8546673"><ele>431.45</ele><time>2026-03-20T18:22:15.000Z</time></trkpt>
        <trkpt lat="28.8185903" lon="104.8545743"><ele>430.59</ele><time>2026-03-20T18:22:23.000Z</time></trkpt>
        <trkpt lat="28.8186284" lon="104.8544771"><ele>429.51</ele><time>2026-03-20T18:22:31.000Z</time></trkpt>
        <trkpt lat="28.8186666" lon="104.8543775"><ele>428.62</ele><time>2026-03-20T18:22:39.000Z</time></trkpt>
        <trkpt lat="28.8187026" lon="104.8542735"><ele>427.97</ele><time>2026-03-20T18:22:47.000Z</time></trkpt>
        <trkpt lat="28.8187329" lon="104.8541626"><ele>427.81</ele><time>2026-03-20T18:22:55.000Z</time></trkpt>
        <trkpt lat="28.8187543" lon="104.8540521"><ele>427.72</ele><time>2026-03-20T18:23:03.000Z</time></trkpt>
        <trkpt lat="28.8187675" lon="104.8539428"><ele>427.31</ele><time>2026-03-20T18:23:11.000Z</time></trkpt>
        <trkpt lat="28.8187882" lon="104.8538345"><ele>427.02</ele><time>2026-03-20T18:23:19.000Z</time></trkpt>
        <trkpt lat="28.8188475" lon="104.853733"><ele>426.65</ele><time>2026-03-20T18:23:29.000Z</time></trkpt>
        <trkpt lat="28.8189052" lon="104.8536433"><ele>426.46</ele><time>2026-03-20T18:23:37.000Z</time></trkpt>
        <trkpt lat="28.818935" lon="104.8535408"><ele>426.05</ele><time>2026-03-20T18:23:45.000Z</time></trkpt>
        <trkpt lat="28.8189484" lon="104.853436"><ele>425.35</ele><time>2026-03-20T18:23:53.000Z</time></trkpt>
        <trkpt lat="28.8189398" lon="104.8533223"><ele>424.65</ele><time>2026-03-20T18:24:01.000Z</time></trkpt>
        <trkpt lat="28.8189098" lon="104.8532089"><ele>423.87</ele><time>2026-03-20T18:24:09.000Z</time></trkpt>
        <trkpt lat="28.8188607" lon="104.8531047"><ele>423.4</ele><time>2026-03-20T18:24:17.000Z</time></trkpt>
        <trkpt lat="28.8188111" lon="104.8530075"><ele>423.13</ele><time>2026-03-20T18:24:25.000Z</time></trkpt>
        <trkpt lat="28.8187877" lon="104.8529018"><ele>422.74</ele><time>2026-03-20T18:24:36.000Z</time></trkpt>
        <trkpt lat="28.8188086" lon="104.8527882"><ele>422.44</ele><time>2026-03-20T18:24:47.000Z</time></trkpt>
        <trkpt lat="28.8188446" lon="104.8526775"><ele>422.26</ele><time>2026-03-20T18:24:57.000Z</time></trkpt>
        <trkpt lat="28.8188534" lon="104.8525672"><ele>422.03</ele><time>2026-03-20T18:25:07.000Z</time></trkpt>
        <trkpt lat="28.8188388" lon="104.8524576"><ele>421.71</ele><time>2026-03-20T18:25:18.000Z</time></trkpt>
        <trkpt lat="28.8188237" lon="104.8523449"><ele>422.26</ele><time>2026-03-20T18:25:27.000Z</time></trkpt>
        <trkpt lat="28.8188193" lon="104.8522241"><ele>422.39</ele><time>2026-03-20T18:25:37.000Z</time></trkpt>
        <trkpt lat="28.8188211" lon="104.8521088"><ele>422.96</ele><time>2026-03-20T18:25:47.000Z</time></trkpt>
        <trkpt lat="28.8188572" lon="104.851995"><ele>424.01</ele><time>2026-03-20T18:25:58.000Z</time></trkpt>
        <trkpt lat="28.8189187" lon="104.8519007"><ele>424.51</ele><time>2026-03-20T18:26:08.000Z</time></trkpt>
        <trkpt lat="28.8190078" lon="104.8518271"><ele>424.58</ele><time>2026-03-20T18:26:18.000Z</time></trkpt>
        <trkpt lat="28.8190974" lon="104.8517676"><ele>425.29</ele><time>2026-03-20T18:26:27.000Z</time></trkpt>
        <trkpt lat="28.8191977" lon="104.8517172"><ele>426.08</ele><time>2026-03-20T18:26:37.000Z</time></trkpt>
        <trkpt lat="28.8192792" lon="104.8516421"><ele>426.05</ele><time>2026-03-20T18:26:46.000Z</time></trkpt>
        <trkpt lat="28.8193023" lon="104.8515382"><ele>426.87</ele><time>2026-03-20T18:26:56.000Z</time></trkpt>
        <trkpt lat="28.8193468" lon="104.8514485"><ele>427.34</ele><time>2026-03-20T18:27:04.000Z</time></trkpt>
        <trkpt lat="28.8194206" lon="104.8513981"><ele>427.76</ele><time>2026-03-20T18:27:12.000Z</time></trkpt>
        <trkpt lat="28.8195142" lon="104.8513819"><ele>427.7</ele><time>2026-03-20T18:27:20.000Z</time></trkpt>
        <trkpt lat="28.8196133" lon="104.8513841"><ele>428.16</ele><time>2026-03-20T18:27:28.000Z</time></trkpt>
        <trkpt lat="28.8197109" lon="104.8513949"><ele>428.44</ele><time>2026-03-20T18:27:36.000Z</time></trkpt>
        <trkpt lat="28.8198081" lon="104.8514211"><ele>428.92</ele><time>2026-03-20T18:27:44.000Z</time></trkpt>
        <trkpt lat="28.8198974" lon="104.851459"><ele>429.15</ele><time>2026-03-20T18:27:52.000Z</time></trkpt>
        <trkpt lat="28.819998" lon="104.8514627"><ele>428.96</ele><time>2026-03-20T18:28:02.000Z</time></trkpt>
        <trkpt lat="28.8200919" lon="104.8514394"><ele>428.99</ele><time>2026-03-20T18:28:10.000Z</time></trkpt>
        <trkpt lat="28.8201865" lon="104.851409"><ele>427.5</ele><time>2026-03-20T18:28:18.000Z</time></trkpt>
        <trkpt lat="28.8202903" lon="104.8513899"><ele>425.79</ele><time>2026-03-20T18:28:26.000Z</time></trkpt>
        <trkpt lat="28.8203834" lon="104.8513685"><ele>424.46</ele><time>2026-03-20T18:28:34.000Z</time></trkpt>
        <trkpt lat="28.8204768" lon="104.8513362"><ele>423.51</ele><time>2026-03-20T18:28:42.000Z</time></trkpt>
        <trkpt lat="28.8205568" lon="104.851255"><ele>421.46</ele><time>2026-03-20T18:28:52.000Z</time></trkpt>
        <trkpt lat="28.8205974" lon="104.8511477"><ele>419.45</ele><time>2026-03-20T18:29:00.000Z</time></trkpt>
        <trkpt lat="28.8206203" lon="104.8510309"><ele>417.67</ele><time>2026-03-20T18:29:09.000Z</time></trkpt>
        <trkpt lat="28.8206189" lon="104.8509176"><ele>416.57</ele><time>2026-03-20T18:29:16.000Z</time></trkpt>
        <trkpt lat="28.8206272" lon="104.8507995"><ele>414.88</ele><time>2026-03-20T18:29:25.000Z</time></trkpt>
        <trkpt lat="28.8206645" lon="104.8506893"><ele>413.64</ele><time>2026-03-20T18:29:32.000Z</time></trkpt>
        <trkpt lat="28.8207374" lon="104.8506096"><ele>412.52</ele><time>2026-03-20T18:29:40.000Z</time></trkpt>
        <trkpt lat="28.8208193" lon="104.85055"><ele>411.93</ele><time>2026-03-20T18:29:48.000Z</time></trkpt>
        <trkpt lat="28.8208914" lon="104.850483"><ele>411.31</ele><time>2026-03-20T18:29:56.000Z</time></trkpt>
        <trkpt lat="28.8209234" lon="104.8503809"><ele>411.29</ele><time>2026-03-20T18:30:06.000Z</time></trkpt>
        <trkpt lat="28.8208952" lon="104.8502616"><ele>411.77</ele><time>2026-03-20T18:30:16.000Z</time></trkpt>
        <trkpt lat="28.8208441" lon="104.8501521"><ele>412.51</ele><time>2026-03-20T18:30:24.000Z</time></trkpt>
        <trkpt lat="28.8207902" lon="104.8500477"><ele>412.56</ele><time>2026-03-20T18:30:33.000Z</time></trkpt>
        <trkpt lat="28.8207589" lon="104.8499394"><ele>412.95</ele><time>2026-03-20T18:30:40.000Z</time></trkpt>
        <trkpt lat="28.8207695" lon="104.8498336"><ele>413.56</ele><time>2026-03-20T18:30:48.000Z</time></trkpt>
        <trkpt lat="28.8208142" lon="104.8497424"><ele>414.25</ele><time>2026-03-20T18:30:56.000Z</time></trkpt>
        <trkpt lat="28.8208858" lon="104.8496559"><ele>414.36</ele><time>2026-03-20T18:31:04.000Z</time></trkpt>
        <trkpt lat="28.8209707" lon="104.8495896"><ele>414.55</ele><time>2026-03-20T18:31:12.000Z</time></trkpt>
        <trkpt lat="28.8210656" lon="104.8495248"><ele>414.77</ele><time>2026-03-20T18:31:22.000Z</time></trkpt>
        <trkpt lat="28.8210975" lon="104.8494258"><ele>415.26</ele><time>2026-03-20T18:31:30.000Z</time></trkpt>
        <trkpt lat="28.8210799" lon="104.849324"><ele>415.49</ele><time>2026-03-20T18:31:38.000Z</time></trkpt>
        <trkpt lat="28.8210774" lon="104.8492184"><ele>415.89</ele><time>2026-03-20T18:31:46.000Z</time></trkpt>
        <trkpt lat="28.8210984" lon="104.8491161"><ele>416.24</ele><time>2026-03-20T18:31:54.000Z</time></trkpt>
        <trkpt lat="28.8211312" lon="104.8490149"><ele>416.69</ele><time>2026-03-20T18:32:02.000Z</time></trkpt>
        <trkpt lat="28.8211615" lon="104.8489094"><ele>416.62</ele><time>2026-03-20T18:32:10.000Z</time></trkpt>
        <trkpt lat="28.8211173" lon="104.8488224"><ele>416.13</ele><time>2026-03-20T18:32:20.000Z</time></trkpt>
        <trkpt lat="28.8210357" lon="104.8487661"><ele>415.02</ele><time>2026-03-20T18:32:28.000Z</time></trkpt>
        <trkpt lat="28.8209493" lon="104.848703"><ele>413.81</ele><time>2026-03-20T18:32:36.000Z</time></trkpt>
        <trkpt lat="28.8208944" lon="104.8486116"><ele>413.12</ele><time>2026-03-20T18:32:44.000Z</time></trkpt>
        <trkpt lat="28.8208595" lon="104.848513"><ele>412.59</ele><time>2026-03-20T18:32:53.000Z</time></trkpt>
        <trkpt lat="28.8207956" lon="104.8484292"><ele>412.06</ele><time>2026-03-20T18:33:03.000Z</time></trkpt>
        <trkpt lat="28.8207103" lon="104.8483555"><ele>411.99</ele><time>2026-03-20T18:33:13.000Z</time></trkpt>
        <trkpt lat="28.8206044" lon="104.8483054"><ele>412.39</ele><time>2026-03-20T18:33:23.000Z</time></trkpt>
        <trkpt lat="28.8205313" lon="104.8482326"><ele>413.64</ele><time>2026-03-20T18:33:31.000Z</time></trkpt>
        <trkpt lat="28.8204983" lon="104.8481306"><ele>414.33</ele><time>2026-03-20T18:33:39.000Z</time></trkpt>
        <trkpt lat="28.8205095" lon="104.8480133"><ele>414.28</ele><time>2026-03-20T18:33:47.000Z</time></trkpt>
        <trkpt lat="28.8205121" lon="104.8478853"><ele>414.36</ele><time>2026-03-20T18:33:57.000Z</time></trkpt>
        <trkpt lat="28.8205003" lon="104.8477746"><ele>413.96</ele><time>2026-03-20T18:34:05.000Z</time></trkpt>
        <trkpt lat="28.8205032" lon="104.8476521"><ele>413.64</ele><time>2026-03-20T18:34:15.000Z</time></trkpt>
        <trkpt lat="28.8205234" lon="104.8475445"><ele>413.1</ele><time>2026-03-20T18:34:23.000Z</time></trkpt>
        <trkpt lat="28.820561" lon="104.8474468"><ele>412.3</ele><time>2026-03-20T18:34:31.000Z</time></trkpt>
        <trkpt lat="28.8205716" lon="104.8473467"><ele>411.45</ele><time>2026-03-20T18:34:40.000Z</time></trkpt>
        <trkpt lat="28.8205599" lon="104.8472423"><ele>410.68</ele><time>2026-03-20T18:34:49.000Z</time></trkpt>
        <trkpt lat="28.8205691" lon="104.8471392"><ele>408.97</ele><time>2026-03-20T18:34:56.000Z</time></trkpt>
        <trkpt lat="28.8205931" lon="104.8470379"><ele>407.88</ele><time>2026-03-20T18:35:04.000Z</time></trkpt>
        <trkpt lat="28.8206243" lon="104.8469342"><ele>407.11</ele><time>2026-03-20T18:35:12.000Z</time></trkpt>
        <trkpt lat="28.8206521" lon="104.8468329"><ele>406.42</ele><time>2026-03-20T18:35:21.000Z</time></trkpt>
        <trkpt lat="28.8206775" lon="104.8467131"><ele>405.83</ele><time>2026-03-20T18:35:31.000Z</time></trkpt>
        <trkpt lat="28.8206878" lon="104.846602"><ele>405.4</ele><time>2026-03-20T18:35:38.000Z</time></trkpt>
        <trkpt lat="28.8206712" lon="104.8464802"><ele>405.17</ele><time>2026-03-20T18:35:49.000Z</time></trkpt>
        <trkpt lat="28.820663" lon="104.8463684"><ele>404.69</ele><time>2026-03-20T18:35:57.000Z</time></trkpt>
        <trkpt lat="28.820631" lon="104.8462682"><ele>403.98</ele><time>2026-03-20T18:36:04.000Z</time></trkpt>
        <trkpt lat="28.8205805" lon="104.8461788"><ele>403.17</ele><time>2026-03-20T18:36:12.000Z</time></trkpt>
        <trkpt lat="28.8205496" lon="104.8460674"><ele>402.4</ele><time>2026-03-20T18:36:22.000Z</time></trkpt>
        <trkpt lat="28.8205409" lon="104.8459467"><ele>401.86</ele><time>2026-03-20T18:36:33.000Z</time></trkpt>
        <trkpt lat="28.820529" lon="104.8458227"><ele>400.81</ele><time>2026-03-20T18:36:42.000Z</time></trkpt>
        <trkpt lat="28.8205345" lon="104.8456973"><ele>399.92</ele><time>2026-03-20T18:36:52.000Z</time></trkpt>
        <trkpt lat="28.8205238" lon="104.8455867"><ele>399.09</ele><time>2026-03-20T18:37:02.000Z</time></trkpt>
        <trkpt lat="28.8205666" lon="104.8454936"><ele>397.74</ele><time>2026-03-20T18:37:12.000Z</time></trkpt>
        <trkpt lat="28.820592" lon="104.8453921"><ele>396.45</ele><time>2026-03-20T18:37:26.000Z</time></trkpt>
        <trkpt lat="28.8205737" lon="104.8452796"><ele>394.87</ele><time>2026-03-20T18:37:38.000Z</time></trkpt>
        <trkpt lat="28.8206097" lon="104.8451824"><ele>393.18</ele><time>2026-03-20T18:37:56.000Z</time></trkpt>
        <trkpt lat="28.8206341" lon="104.8450793"><ele>393.31</ele><time>2026-03-20T18:38:11.000Z</time></trkpt>
        <trkpt lat="28.8206403" lon="104.8449619"><ele>390.57</ele><time>2026-03-20T18:38:25.000Z</time></trkpt>
        <trkpt lat="28.820626" lon="104.8448474"><ele>388.13</ele><time>2026-03-20T18:38:37.000Z</time></trkpt>
        <trkpt lat="28.8205779" lon="104.8447457"><ele>386.46</ele><time>2026-03-20T18:38:47.000Z</time></trkpt>
        <trkpt lat="28.8204916" lon="104.8446807"><ele>383.28</ele><time>2026-03-20T18:38:57.000Z</time></trkpt>
        <trkpt lat="28.8203836" lon="104.8446542"><ele>382.1</ele><time>2026-03-20T18:39:07.000Z</time></trkpt>
        <trkpt lat="28.820276" lon="104.84469"><ele>380.4</ele><time>2026-03-20T18:39:19.000Z</time></trkpt>
        <trkpt lat="28.8201844" lon="104.8447564"><ele>378.83</ele><time>2026-03-20T18:39:29.000Z</time></trkpt>
        <trkpt lat="28.8200935" lon="104.8448154"><ele>376.87</ele><time>2026-03-20T18:39:41.000Z</time></trkpt>
        <trkpt lat="28.8199937" lon="104.8448663"><ele>374.5</ele><time>2026-03-20T18:39:55.000Z</time></trkpt>
        <trkpt lat="28.8198943" lon="104.8448831"><ele>372.09</ele><time>2026-03-20T18:40:06.000Z</time></trkpt>
        <trkpt lat="28.8198235" lon="104.8448249"><ele>370.53</ele><time>2026-03-20T18:40:17.000Z</time></trkpt>
        <trkpt lat="28.8197953" lon="104.8447087"><ele>368.58</ele><time>2026-03-20T18:40:29.000Z</time></trkpt>
        <trkpt lat="28.8197712" lon="104.8445949"><ele>366.78</ele><time>2026-03-20T18:40:38.000Z</time></trkpt>
        <trkpt lat="28.8197696" lon="104.8444814"><ele>365.48</ele><time>2026-03-20T18:40:47.000Z</time></trkpt>
        <trkpt lat="28.8197622" lon="104.8443893"><ele>364.62</ele><time>2026-03-20T18:40:54.000Z</time></trkpt>
        <trkpt lat="28.8197734" lon="104.8442878"><ele>364.22</ele><time>2026-03-20T18:41:07.000Z</time></trkpt>
        <trkpt lat="28.8197644" lon="104.8441819"><ele>363.31</ele><time>2026-03-20T18:41:16.000Z</time></trkpt>
        <trkpt lat="28.8197492" lon="104.8440762"><ele>362.67</ele><time>2026-03-20T18:41:33.000Z</time></trkpt>
        <trkpt lat="28.8197457" lon="104.8440262"><ele>362.27</ele><time>2026-03-20T18:41:38.000Z</time></trkpt>
        <trkpt lat="28.8197361" lon="104.8439334"><ele>361.84</ele><time>2026-03-20T18:41:54.000Z</time></trkpt>
        <trkpt lat="28.8197596" lon="104.8438336"><ele>361.96</ele><time>2026-03-20T18:42:22.000Z</time></trkpt>
        <trkpt lat="28.8197746" lon="104.8437265"><ele>362.48</ele><time>2026-03-20T18:42:42.000Z</time></trkpt>
        <trkpt lat="28.8197723" lon="104.8436185"><ele>364.9</ele><time>2026-03-20T18:43:10.000Z</time></trkpt>
        <trkpt lat="28.8197856" lon="104.8435031"><ele>368.35</ele><time>2026-03-20T18:43:29.000Z</time></trkpt>
        <trkpt lat="28.8197935" lon="104.8433914"><ele>371.47</ele><time>2026-03-20T18:43:40.000Z</time></trkpt>
        <trkpt lat="28.8198122" lon="104.84328"><ele>373.44</ele><time>2026-03-20T18:43:53.000Z</time></trkpt>
        <trkpt lat="28.819824" lon="104.8431733"><ele>373.6</ele><time>2026-03-20T18:44:02.000Z</time></trkpt>
        <trkpt lat="28.8198411" lon="104.8430682"><ele>372.79</ele><time>2026-03-20T18:44:15.000Z</time></trkpt>
        <trkpt lat="28.8198847" lon="104.8429675"><ele>372.4</ele><time>2026-03-20T18:44:28.000Z</time></trkpt>
        <trkpt lat="28.8199198" lon="104.8428589"><ele>373.55</ele><time>2026-03-20T18:44:42.000Z</time></trkpt>
        <trkpt lat="28.8199471" lon="104.8427513"><ele>373.46</ele><time>2026-03-20T18:44:53.000Z</time></trkpt>
        <trkpt lat="28.8199767" lon="104.8426466"><ele>372.52</ele><time>2026-03-20T18:45:03.000Z</time></trkpt>
        <trkpt lat="28.8199862" lon="104.8426043"><ele>371.73</ele><time>2026-03-20T18:45:07.000Z</time></trkpt>
        <trkpt lat="28.8200226" lon="104.8425287"><ele>371.61</ele><time>2026-03-20T18:45:26.000Z</time></trkpt>
        <trkpt lat="28.8200698" lon="104.8424409"><ele>370.69</ele><time>2026-03-20T18:45:39.000Z</time></trkpt>
        <trkpt lat="28.820091" lon="104.8423367"><ele>369.57</ele><time>2026-03-20T18:45:48.000Z</time></trkpt>
        <trkpt lat="28.8201042" lon="104.8422316"><ele>369.01</ele><time>2026-03-20T18:45:58.000Z</time></trkpt>
        <trkpt lat="28.8201549" lon="104.8421495"><ele>368.13</ele><time>2026-03-20T18:46:30.000Z</time></trkpt>
        <trkpt lat="28.8202004" lon="104.8420567"><ele>367.54</ele><time>2026-03-20T18:46:42.000Z</time></trkpt>
        <trkpt lat="28.8202451" lon="104.8419499"><ele>366.89</ele><time>2026-03-20T18:46:57.000Z</time></trkpt>
        <trkpt lat="28.8202547" lon="104.8418406"><ele>365.9</ele><time>2026-03-20T18:47:08.000Z</time></trkpt>
        <trkpt lat="28.8202657" lon="104.8417252"><ele>365.02</ele><time>2026-03-20T18:47:25.000Z</time></trkpt>
        <trkpt lat="28.8202221" lon="104.8416367"><ele>365.14</ele><time>2026-03-20T18:47:36.000Z</time></trkpt>
        <trkpt lat="28.8202081" lon="104.8415359"><ele>366.03</ele><time>2026-03-20T18:47:44.000Z</time></trkpt>
        <trkpt lat="28.8202046" lon="104.8414198"><ele>365.9</ele><time>2026-03-20T18:47:54.000Z</time></trkpt>
        <trkpt lat="28.8202032" lon="104.8413083"><ele>366.53</ele><time>2026-03-20T18:48:07.000Z</time></trkpt>
        <trkpt lat="28.8202115" lon="104.8411975"><ele>366.27</ele><time>2026-03-20T18:48:16.000Z</time></trkpt>
        <trkpt lat="28.8201962" lon="104.8410842"><ele>365.87</ele><time>2026-03-20T18:48:29.000Z</time></trkpt>
        <trkpt lat="28.8202169" lon="104.8409754"><ele>364.87</ele><time>2026-03-20T18:48:38.000Z</time></trkpt>
        <trkpt lat="28.820291" lon="104.8409316"><ele>364.13</ele><time>2026-03-20T18:49:27.000Z</time></trkpt>
        <trkpt lat="28.8203829" lon="104.8409797"><ele>360.34</ele><time>2026-03-20T18:49:51.000Z</time></trkpt>
        <trkpt lat="28.8204154" lon="104.8410851"><ele>357.14</ele><time>2026-03-20T18:49:59.000Z</time></trkpt>
        <trkpt lat="28.8204196" lon="104.8412158"><ele>355.6</ele><time>2026-03-20T18:50:09.000Z</time></trkpt>
        <trkpt lat="28.8204024" lon="104.8412712"><ele>354.58</ele><time>2026-03-20T18:50:17.000Z</time></trkpt>
        <trkpt lat="28.8204389" lon="104.8413388"><ele>351.58</ele><time>2026-03-20T18:50:29.000Z</time></trkpt>
        <trkpt lat="28.8205211" lon="104.8413291"><ele>350.26</ele><time>2026-03-20T18:50:41.000Z</time></trkpt>
        <trkpt lat="28.8206008" lon="104.8412489"><ele>351.47</ele><time>2026-03-20T18:50:53.000Z</time></trkpt>
        <trkpt lat="28.8206284" lon="104.8412138"><ele>351.76</ele><time>2026-03-20T18:50:55.000Z</time></trkpt>
        <trkpt lat="28.8206776" lon="104.8411415"><ele>351.69</ele><time>2026-03-20T18:51:07.000Z</time></trkpt>
        <trkpt lat="28.8207698" lon="104.8410861"><ele>350.85</ele><time>2026-03-20T18:51:19.000Z</time></trkpt>
        <trkpt lat="28.8208703" lon="104.8410807"><ele>350.99</ele><time>2026-03-20T18:51:29.000Z</time></trkpt>
        <trkpt lat="28.8209273" lon="104.8411069"><ele>352.2</ele><time>2026-03-20T18:51:37.000Z</time></trkpt>
        <trkpt lat="28.8210066" lon="104.8411512"><ele>353.95</ele><time>2026-03-20T18:51:49.000Z</time></trkpt>
        <trkpt lat="28.8210949" lon="104.8411954"><ele>355.63</ele><time>2026-03-20T18:51:59.000Z</time></trkpt>
        <trkpt lat="28.821129" lon="104.8412148"><ele>357.29</ele><time>2026-03-20T18:52:01.000Z</time></trkpt>
        <trkpt lat="28.8212066" lon="104.8412045"><ele>358.56</ele><time>2026-03-20T18:52:21.000Z</time></trkpt>
        <trkpt lat="28.8212895" lon="104.8411475"><ele>359.17</ele><time>2026-03-20T18:52:33.000Z</time></trkpt>
        <trkpt lat="28.8213235" lon="104.8410484"><ele>358.99</ele><time>2026-03-20T18:52:43.000Z</time></trkpt>
        <trkpt lat="28.821303" lon="104.8409332"><ele>357.34</ele><time>2026-03-20T18:52:53.000Z</time></trkpt>
        <trkpt lat="28.8212363" lon="104.8408289"><ele>356.31</ele><time>2026-03-20T18:53:03.000Z</time></trkpt>
        <trkpt lat="28.821186" lon="104.8407112"><ele>355.78</ele><time>2026-03-20T18:53:13.000Z</time></trkpt>
        <trkpt lat="28.8211976" lon="104.84069"><ele>356.71</ele><time>2026-03-20T18:53:17.000Z</time></trkpt>
        <trkpt lat="28.821261" lon="104.8406385"><ele>356.75</ele><time>2026-03-20T18:54:07.000Z</time></trkpt>
        <trkpt lat="28.8213358" lon="104.8407078"><ele>358.32</ele><time>2026-03-20T18:54:17.000Z</time></trkpt>
        <trkpt lat="28.8213993" lon="104.8406971"><ele>361.69</ele><time>2026-03-20T18:54:35.000Z</time></trkpt>
        <trkpt lat="28.821457" lon="104.8407572"><ele>364.73</ele><time>2026-03-20T18:54:49.000Z</time></trkpt>
        <trkpt lat="28.8215297" lon="104.8408348"><ele>367.57</ele><time>2026-03-20T18:55:47.000Z</time></trkpt>
        <trkpt lat="28.8216243" lon="104.840884"><ele>369.05</ele><time>2026-03-20T18:55:59.000Z</time></trkpt>
        <trkpt lat="28.821674" lon="104.8408198"><ele>370.43</ele><time>2026-03-20T18:56:17.000Z</time></trkpt>
        <trkpt lat="28.8216397" lon="104.8407164"><ele>370.79</ele><time>2026-03-20T18:56:27.000Z</time></trkpt>
        <trkpt lat="28.8216089" lon="104.8405988"><ele>371.1</ele><time>2026-03-20T18:56:37.000Z</time></trkpt>
        <trkpt lat="28.8215529" lon="104.8405019"><ele>371.36</ele><time>2026-03-20T18:56:47.000Z</time></trkpt>
        <trkpt lat="28.8215377" lon="104.8404355"><ele>372.67</ele><time>2026-03-20T18:56:55.000Z</time></trkpt>
        <trkpt lat="28.8214906" lon="104.8403379"><ele>373.05</ele><time>2026-03-20T18:57:05.000Z</time></trkpt>
        <trkpt lat="28.8214356" lon="104.8402376"><ele>374.46</ele><time>2026-03-20T18:57:13.000Z</time></trkpt>
        <trkpt lat="28.8214293" lon="104.8401284"><ele>375.65</ele><time>2026-03-20T18:57:21.000Z</time></trkpt>
        <trkpt lat="28.8214085" lon="104.8400161"><ele>376.54</ele><time>2026-03-20T18:57:31.000Z</time></trkpt>
        <trkpt lat="28.8213532" lon="104.8399238"><ele>376.87</ele><time>2026-03-20T18:57:40.000Z</time></trkpt>
        <trkpt lat="28.8212577" lon="104.8398959"><ele>377.36</ele><time>2026-03-20T18:57:49.000Z</time></trkpt>
        <trkpt lat="28.8211897" lon="104.839888"><ele>377.1</ele><time>2026-03-20T18:57:58.000Z</time></trkpt>
        <trkpt lat="28.8211504" lon="104.8398161"><ele>377.1</ele><time>2026-03-20T18:58:26.000Z</time></trkpt>
        <trkpt lat="28.8211406" lon="104.839729"><ele>377.6</ele><time>2026-03-20T18:58:38.000Z</time></trkpt>
        <trkpt lat="28.8211738" lon="104.8398197"><ele>377.89</ele><time>2026-03-20T19:00:20.000Z</time></trkpt>
        <trkpt lat="28.8212571" lon="104.8399071"><ele>376.89</ele><time>2026-03-20T19:00:35.000Z</time></trkpt>
        <trkpt lat="28.8213507" lon="104.8399601"><ele>376.92</ele><time>2026-03-20T19:00:44.000Z</time></trkpt>
        <trkpt lat="28.8214247" lon="104.8400242"><ele>376.85</ele><time>2026-03-20T19:00:54.000Z</time></trkpt>
        <trkpt lat="28.8215" lon="104.8400658"><ele>376.72</ele><time>2026-03-20T19:01:11.000Z</time></trkpt>
        <trkpt lat="28.821575" lon="104.8401229"><ele>376.69</ele><time>2026-03-20T19:02:07.000Z</time></trkpt>
        <trkpt lat="28.8216049" lon="104.8402161"><ele>375.94</ele><time>2026-03-20T19:02:16.000Z</time></trkpt>
        <trkpt lat="28.8216142" lon="104.8403347"><ele>374.26</ele><time>2026-03-20T19:02:26.000Z</time></trkpt>
        <trkpt lat="28.8216379" lon="104.84045"><ele>373.73</ele><time>2026-03-20T19:02:34.000Z</time></trkpt>
        <trkpt lat="28.821646" lon="104.8405496"><ele>373.37</ele><time>2026-03-20T19:02:44.000Z</time></trkpt>
        <trkpt lat="28.8216234" lon="104.8406549"><ele>373.1</ele><time>2026-03-20T19:02:59.000Z</time></trkpt>
        <trkpt lat="28.8216365" lon="104.8407555"><ele>372.51</ele><time>2026-03-20T19:03:08.000Z</time></trkpt>
        <trkpt lat="28.8216885" lon="104.8408387"><ele>372.32</ele><time>2026-03-20T19:03:18.000Z</time></trkpt>
        <trkpt lat="28.8217637" lon="104.8409023"><ele>372.55</ele><time>2026-03-20T19:03:34.000Z</time></trkpt>
        <trkpt lat="28.8218553" lon="104.8409744"><ele>371.74</ele><time>2026-03-20T19:03:44.000Z</time></trkpt>
        <trkpt lat="28.8219582" lon="104.8410066"><ele>371.98</ele><time>2026-03-20T19:03:54.000Z</time></trkpt>
        <trkpt lat="28.8220531" lon="104.8409667"><ele>373.31</ele><time>2026-03-20T19:04:05.000Z</time></trkpt>
        <trkpt lat="28.8221476" lon="104.8409152"><ele>373.69</ele><time>2026-03-20T19:04:12.000Z</time></trkpt>
        <trkpt lat="28.8222423" lon="104.8409389"><ele>373.97</ele><time>2026-03-20T19:04:24.000Z</time></trkpt>
        <trkpt lat="28.8223347" lon="104.8410045"><ele>374.91</ele><time>2026-03-20T19:04:34.000Z</time></trkpt>
        <trkpt lat="28.8224179" lon="104.8410633"><ele>376.2</ele><time>2026-03-20T19:04:42.000Z</time></trkpt>
        <trkpt lat="28.8225068" lon="104.841057"><ele>376.7</ele><time>2026-03-20T19:04:52.000Z</time></trkpt>
        <trkpt lat="28.8225972" lon="104.8410124"><ele>376.97</ele><time>2026-03-20T19:05:02.000Z</time></trkpt>
        <trkpt lat="28.8227001" lon="104.8409819"><ele>377.57</ele><time>2026-03-20T19:05:12.000Z</time></trkpt>
        <trkpt lat="28.822737" lon="104.8409724"><ele>378.65</ele><time>2026-03-20T19:05:16.000Z</time></trkpt>
        <trkpt lat="28.8227806" lon="104.8410324"><ele>378.77</ele><time>2026-03-20T19:05:40.000Z</time></trkpt>
        <trkpt lat="28.8228102" lon="104.8411401"><ele>378.88</ele><time>2026-03-20T19:05:50.000Z</time></trkpt>
        <trkpt lat="28.8228648" lon="104.8411115"><ele>379.92</ele><time>2026-03-20T19:06:02.000Z</time></trkpt>
        <trkpt lat="28.8229263" lon="104.8410212"><ele>379.76</ele><time>2026-03-20T19:06:12.000Z</time></trkpt>
        <trkpt lat="28.8230051" lon="104.8409404"><ele>381.12</ele><time>2026-03-20T19:06:22.000Z</time></trkpt>
        <trkpt lat="28.8230772" lon="104.8408621"><ele>383.56</ele><time>2026-03-20T19:06:34.000Z</time></trkpt>
        <trkpt lat="28.8231729" lon="104.840836"><ele>385.92</ele><time>2026-03-20T19:06:44.000Z</time></trkpt>
        <trkpt lat="28.8232711" lon="104.8407927"><ele>387.14</ele><time>2026-03-20T19:06:54.000Z</time></trkpt>
        <trkpt lat="28.823376" lon="104.8407841"><ele>387.53</ele><time>2026-03-20T19:07:04.000Z</time></trkpt>
        <trkpt lat="28.8234787" lon="104.8407653"><ele>387.63</ele><time>2026-03-20T19:07:14.000Z</time></trkpt>
        <trkpt lat="28.8235741" lon="104.840783"><ele>387.4</ele><time>2026-03-20T19:07:28.000Z</time></trkpt>
        <trkpt lat="28.8236424" lon="104.8408633"><ele>385.87</ele><time>2026-03-20T19:07:36.000Z</time></trkpt>
        <trkpt lat="28.8237323" lon="104.8408569"><ele>384.31</ele><time>2026-03-20T19:07:44.000Z</time></trkpt>
        <trkpt lat="28.8238063" lon="104.8408203"><ele>383.23</ele><time>2026-03-20T19:07:54.000Z</time></trkpt>
        <trkpt lat="28.8239009" lon="104.8407876"><ele>382.31</ele><time>2026-03-20T19:08:14.000Z</time></trkpt>
        <trkpt lat="28.8239398" lon="104.8407732"><ele>381.97</ele><time>2026-03-20T19:08:18.000Z</time></trkpt>
        <trkpt lat="28.8238981" lon="104.8407044"><ele>381.99</ele><time>2026-03-20T19:09:04.000Z</time></trkpt>
        <trkpt lat="28.8238293" lon="104.8406179"><ele>381.94</ele><time>2026-03-20T19:09:12.000Z</time></trkpt>
        <trkpt lat="28.8238299" lon="104.8405371"><ele>382.26</ele><time>2026-03-20T19:09:22.000Z</time></trkpt>
        <trkpt lat="28.8237968" lon="104.8404411"><ele>382.65</ele><time>2026-03-20T19:09:34.000Z</time></trkpt>
        <trkpt lat="28.8237709" lon="104.8403389"><ele>382.92</ele><time>2026-03-20T19:09:44.000Z</time></trkpt>
        <trkpt lat="28.8237856" lon="104.8402215"><ele>382.57</ele><time>2026-03-20T19:09:54.000Z</time></trkpt>
        <trkpt lat="28.8238346" lon="104.8401238"><ele>382.28</ele><time>2026-03-20T19:10:02.000Z</time></trkpt>
        <trkpt lat="28.8239053" lon="104.8400271"><ele>381.95</ele><time>2026-03-20T19:10:12.000Z</time></trkpt>
        <trkpt lat="28.8239976" lon="104.8399655"><ele>382.45</ele><time>2026-03-20T19:10:21.000Z</time></trkpt>
        <trkpt lat="28.8240989" lon="104.8399362"><ele>382.32</ele><time>2026-03-20T19:10:28.000Z</time></trkpt>
        <trkpt lat="28.8242036" lon="104.8399047"><ele>381.33</ele><time>2026-03-20T19:10:39.000Z</time></trkpt>
        <trkpt lat="28.8243045" lon="104.8399"><ele>380.67</ele><time>2026-03-20T19:10:46.000Z</time></trkpt>
        <trkpt lat="28.8244036" lon="104.8398932"><ele>380.57</ele><time>2026-03-20T19:10:54.000Z</time></trkpt>
        <trkpt lat="28.8245016" lon="104.8398713"><ele>379.84</ele><time>2026-03-20T19:11:06.000Z</time></trkpt>
        <trkpt lat="28.82458" lon="104.8398033"><ele>379.97</ele><time>2026-03-20T19:11:16.000Z</time></trkpt>
        <trkpt lat="28.8246118" lon="104.8396889"><ele>380.38</ele><time>2026-03-20T19:11:26.000Z</time></trkpt>
        <trkpt lat="28.8246233" lon="104.8395595"><ele>381.52</ele><time>2026-03-20T19:11:36.000Z</time></trkpt>
        <trkpt lat="28.8246388" lon="104.8394267"><ele>381.75</ele><time>2026-03-20T19:11:46.000Z</time></trkpt>
        <trkpt lat="28.824697" lon="104.8393387"><ele>381.15</ele><time>2026-03-20T19:11:56.000Z</time></trkpt>
        <trkpt lat="28.8247862" lon="104.8393076"><ele>382.1</ele><time>2026-03-20T19:12:07.000Z</time></trkpt>
        <trkpt lat="28.8248863" lon="104.8393361"><ele>383.93</ele><time>2026-03-20T19:12:40.000Z</time></trkpt>
        <trkpt lat="28.8249861" lon="104.8393852"><ele>384.83</ele><time>2026-03-20T19:12:50.000Z</time></trkpt>
        <trkpt lat="28.8250786" lon="104.8394611"><ele>385.24</ele><time>2026-03-20T19:13:00.000Z</time></trkpt>
        <trkpt lat="28.8251343" lon="104.8395636"><ele>385.4</ele><time>2026-03-20T19:13:08.000Z</time></trkpt>
        <trkpt lat="28.8251776" lon="104.8396713"><ele>384.98</ele><time>2026-03-20T19:13:17.000Z</time></trkpt>
        <trkpt lat="28.8252487" lon="104.8397418"><ele>385.39</ele><time>2026-03-20T19:13:26.000Z</time></trkpt>
        <trkpt lat="28.8252013" lon="104.8397406"><ele>385.22</ele><time>2026-03-20T19:13:42.000Z</time></trkpt>
        <trkpt lat="28.8251406" lon="104.8396578"><ele>385.4</ele><time>2026-03-20T19:13:52.000Z</time></trkpt>
        <trkpt lat="28.8250859" lon="104.8395438"><ele>384.87</ele><time>2026-03-20T19:14:01.000Z</time></trkpt>
        <trkpt lat="28.8250703" lon="104.8394142"><ele>384.49</ele><time>2026-03-20T19:14:09.000Z</time></trkpt>
        <trkpt lat="28.8250722" lon="104.8392929"><ele>384.55</ele><time>2026-03-20T19:14:17.000Z</time></trkpt>
        <trkpt lat="28.8251008" lon="104.8391823"><ele>384.51</ele><time>2026-03-20T19:14:25.000Z</time></trkpt>
        <trkpt lat="28.8251286" lon="104.8391373"><ele>384.5</ele><time>2026-03-20T19:14:30.000Z</time></trkpt>
        <trkpt lat="28.8251986" lon="104.8390749"><ele>384.31</ele><time>2026-03-20T19:14:44.000Z</time></trkpt>
        <trkpt lat="28.8252886" lon="104.8390366"><ele>384.03</ele><time>2026-03-20T19:14:53.000Z</time></trkpt>
        <trkpt lat="28.8253933" lon="104.8390202"><ele>383.58</ele><time>2026-03-20T19:15:00.000Z</time></trkpt>
        <trkpt lat="28.8254476" lon="104.8389416"><ele>382.66</ele><time>2026-03-20T19:15:10.000Z</time></trkpt>
        <trkpt lat="28.8254644" lon="104.8389054"><ele>381.85</ele><time>2026-03-20T19:15:15.000Z</time></trkpt>
        <trkpt lat="28.825414" lon="104.838833"><ele>381.47</ele><time>2026-03-20T19:15:26.000Z</time></trkpt>
        <trkpt lat="28.8253198" lon="104.8387706"><ele>381.47</ele><time>2026-03-20T19:15:36.000Z</time></trkpt>
        <trkpt lat="28.825268" lon="104.8386652"><ele>382.66</ele><time>2026-03-20T19:15:48.000Z</time></trkpt>
        <trkpt lat="28.8252735" lon="104.8385533"><ele>381.54</ele><time>2026-03-20T19:15:56.000Z</time></trkpt>
        <trkpt lat="28.8253095" lon="104.8384762"><ele>381.61</ele><time>2026-03-20T19:16:06.000Z</time></trkpt>
        <trkpt lat="28.8253615" lon="104.8383934"><ele>381.48</ele><time>2026-03-20T19:16:20.000Z</time></trkpt>
        <trkpt lat="28.8254584" lon="104.8383494"><ele>382.4</ele><time>2026-03-20T19:16:40.000Z</time></trkpt>
        <trkpt lat="28.8255379" lon="104.8382773"><ele>382.51</ele><time>2026-03-20T19:16:50.000Z</time></trkpt>
        <trkpt lat="28.825537" lon="104.8381756"><ele>383.15</ele><time>2026-03-20T19:17:00.000Z</time></trkpt>
        <trkpt lat="28.825502" lon="104.8380698"><ele>384.29</ele><time>2026-03-20T19:17:29.000Z</time></trkpt>
        <trkpt lat="28.825443" lon="104.8379793"><ele>383.91</ele><time>2026-03-20T19:18:08.000Z</time></trkpt>
        <trkpt lat="28.8254303" lon="104.8378692"><ele>382.29</ele><time>2026-03-20T19:18:46.000Z</time></trkpt>
        <trkpt lat="28.8254583" lon="104.8378509"><ele>381.67</ele><time>2026-03-20T19:18:52.000Z</time></trkpt>
        <trkpt lat="28.8254228" lon="104.8377742"><ele>380.15</ele><time>2026-03-20T19:19:08.000Z</time></trkpt>
        <trkpt lat="28.8253847" lon="104.8377305"><ele>378.38</ele><time>2026-03-20T19:19:22.000Z</time></trkpt>
        <trkpt lat="28.825396" lon="104.8376428"><ele>376.27</ele><time>2026-03-20T19:19:40.000Z</time></trkpt>
        <trkpt lat="28.8254188" lon="104.8375921"><ele>375.61</ele><time>2026-03-20T19:19:46.000Z</time></trkpt>
        <trkpt lat="28.8254916" lon="104.837548"><ele>375.41</ele><time>2026-03-20T19:20:01.000Z</time></trkpt>
        <trkpt lat="28.8255655" lon="104.8374821"><ele>375.81</ele><time>2026-03-20T19:20:15.000Z</time></trkpt>
        <trkpt lat="28.8256227" lon="104.8373925"><ele>376.09</ele><time>2026-03-20T19:20:26.000Z</time></trkpt>
        <trkpt lat="28.8256738" lon="104.8372877"><ele>377.11</ele><time>2026-03-20T19:20:36.000Z</time></trkpt>
        <trkpt lat="28.82568" lon="104.8372531"><ele>378.44</ele><time>2026-03-20T19:20:38.000Z</time></trkpt>
        <trkpt lat="28.8257186" lon="104.8371848"><ele>379.19</ele><time>2026-03-20T19:20:49.000Z</time></trkpt>
        <trkpt lat="28.8257851" lon="104.8371177"><ele>379.93</ele><time>2026-03-20T19:20:57.000Z</time></trkpt>
        <trkpt lat="28.8258461" lon="104.8370382"><ele>380.42</ele><time>2026-03-20T19:21:10.000Z</time></trkpt>
        <trkpt lat="28.8258542" lon="104.8369387"><ele>380.9</ele><time>2026-03-20T19:21:17.000Z</time></trkpt>
        <trkpt lat="28.8257807" lon="104.8368851"><ele>381.24</ele><time>2026-03-20T19:21:26.000Z</time></trkpt>
        <trkpt lat="28.8256833" lon="104.8368927"><ele>381.32</ele><time>2026-03-20T19:21:33.000Z</time></trkpt>
        <trkpt lat="28.825575" lon="104.836939"><ele>381.89</ele><time>2026-03-20T19:21:49.000Z</time></trkpt>
        <trkpt lat="28.8254736" lon="104.8369597"><ele>382.24</ele><time>2026-03-20T19:21:57.000Z</time></trkpt>
        <trkpt lat="28.8253826" lon="104.8369353"><ele>382.01</ele><time>2026-03-20T19:22:05.000Z</time></trkpt>
        <trkpt lat="28.8252972" lon="104.836892"><ele>381.89</ele><time>2026-03-20T19:22:13.000Z</time></trkpt>
        <trkpt lat="28.8253407" lon="104.836895"><ele>382.54</ele><time>2026-03-20T19:22:23.000Z</time></trkpt>
        <trkpt lat="28.8253017" lon="104.836875"><ele>382.36</ele><time>2026-03-20T19:22:37.000Z</time></trkpt>
        <trkpt lat="28.8252284" lon="104.8368221"><ele>382.06</ele><time>2026-03-20T19:22:47.000Z</time></trkpt>
        <trkpt lat="28.8251497" lon="104.8367301"><ele>381.27</ele><time>2026-03-20T19:22:57.000Z</time></trkpt>
        <trkpt lat="28.8251031" lon="104.8366252"><ele>380.84</ele><time>2026-03-20T19:23:08.000Z</time></trkpt>
        <trkpt lat="28.8250237" lon="104.8365878"><ele>380.95</ele><time>2026-03-20T19:23:15.000Z</time></trkpt>
        <trkpt lat="28.8249444" lon="104.8365413"><ele>381.18</ele><time>2026-03-20T19:23:25.000Z</time></trkpt>
        <trkpt lat="28.8248467" lon="104.8365016"><ele>381.4</ele><time>2026-03-20T19:23:35.000Z</time></trkpt>
        <trkpt lat="28.8247927" lon="104.8364205"><ele>382.07</ele><time>2026-03-20T19:23:45.000Z</time></trkpt>
        <trkpt lat="28.8247702" lon="104.8363201"><ele>382.11</ele><time>2026-03-20T19:23:55.000Z</time></trkpt>
        <trkpt lat="28.8247739" lon="104.8362072"><ele>382.18</ele><time>2026-03-20T19:24:06.000Z</time></trkpt>
        <trkpt lat="28.8247867" lon="104.8360847"><ele>382.94</ele><time>2026-03-20T19:24:15.000Z</time></trkpt>
        <trkpt lat="28.8248064" lon="104.8359599"><ele>383.2</ele><time>2026-03-20T19:24:25.000Z</time></trkpt>
        <trkpt lat="28.8248838" lon="104.8358775"><ele>383.39</ele><time>2026-03-20T19:24:35.000Z</time></trkpt>
        <trkpt lat="28.8249819" lon="104.8358837"><ele>383.22</ele><time>2026-03-20T19:24:47.000Z</time></trkpt>
        <trkpt lat="28.8250807" lon="104.8359361"><ele>382.83</ele><time>2026-03-20T19:24:55.000Z</time></trkpt>
        <trkpt lat="28.8251889" lon="104.8359867"><ele>382.69</ele><time>2026-03-20T19:25:05.000Z</time></trkpt>
        <trkpt lat="28.8253006" lon="104.8360064"><ele>382.91</ele><time>2026-03-20T19:25:15.000Z</time></trkpt>
        <trkpt lat="28.8254036" lon="104.835985"><ele>383.27</ele><time>2026-03-20T19:25:25.000Z</time></trkpt>
        <trkpt lat="28.8254997" lon="104.8359346"><ele>383.42</ele><time>2026-03-20T19:25:36.000Z</time></trkpt>
        <trkpt lat="28.8255656" lon="104.8358561"><ele>383.46</ele><time>2026-03-20T19:25:45.000Z</time></trkpt>
        <trkpt lat="28.825594" lon="104.8357506"><ele>383.74</ele><time>2026-03-20T19:25:54.000Z</time></trkpt>
        <trkpt lat="28.8255979" lon="104.835638"><ele>384.44</ele><time>2026-03-20T19:26:04.000Z</time></trkpt>
        <trkpt lat="28.8255891" lon="104.8355249"><ele>385.33</ele><time>2026-03-20T19:26:14.000Z</time></trkpt>
        <trkpt lat="28.8255898" lon="104.8354179"><ele>385.96</ele><time>2026-03-20T19:26:22.000Z</time></trkpt>
        <trkpt lat="28.8256172" lon="104.8353185"><ele>386.18</ele><time>2026-03-20T19:26:32.000Z</time></trkpt>
        <trkpt lat="28.8256648" lon="104.8352283"><ele>386.24</ele><time>2026-03-20T19:26:41.000Z</time></trkpt>
        <trkpt lat="28.8257216" lon="104.8351343"><ele>385.79</ele><time>2026-03-20T19:26:51.000Z</time></trkpt>
        <trkpt lat="28.8257758" lon="104.8350423"><ele>385.49</ele><time>2026-03-20T19:27:03.000Z</time></trkpt>
        <trkpt lat="28.8258401" lon="104.8349634"><ele>385.51</ele><time>2026-03-20T19:27:13.000Z</time></trkpt>
        <trkpt lat="28.8259206" lon="104.8349045"><ele>384.99</ele><time>2026-03-20T19:27:23.000Z</time></trkpt>
        <trkpt lat="28.8260156" lon="104.8349221"><ele>385.29</ele><time>2026-03-20T19:27:32.000Z</time></trkpt>
        <trkpt lat="28.8260872" lon="104.8350117"><ele>384.37</ele><time>2026-03-20T19:27:43.000Z</time></trkpt>
        <trkpt lat="28.8261488" lon="104.8351164"><ele>382.85</ele><time>2026-03-20T19:27:53.000Z</time></trkpt>
        <trkpt lat="28.8261982" lon="104.8352183"><ele>381.38</ele><time>2026-03-20T19:28:01.000Z</time></trkpt>
        <trkpt lat="28.8262786" lon="104.8352795"><ele>380.2</ele><time>2026-03-20T19:28:16.000Z</time></trkpt>
        <trkpt lat="28.8263793" lon="104.8352859"><ele>378.38</ele><time>2026-03-20T19:28:28.000Z</time></trkpt>
        <trkpt lat="28.8264784" lon="104.8352486"><ele>377.11</ele><time>2026-03-20T19:28:40.000Z</time></trkpt>
        <trkpt lat="28.8265516" lon="104.8351734"><ele>375.92</ele><time>2026-03-20T19:28:50.000Z</time></trkpt>
        <trkpt lat="28.8266037" lon="104.8350657"><ele>374.95</ele><time>2026-03-20T19:29:02.000Z</time></trkpt>
        <trkpt lat="28.826647" lon="104.8349564"><ele>374.14</ele><time>2026-03-20T19:29:20.000Z</time></trkpt>
        <trkpt lat="28.8266869" lon="104.8348533"><ele>374.14</ele><time>2026-03-20T19:29:30.000Z</time></trkpt>
        <trkpt lat="28.8267159" lon="104.8347508"><ele>374.93</ele><time>2026-03-20T19:29:40.000Z</time></trkpt>
        <trkpt lat="28.8267307" lon="104.8346414"><ele>376.12</ele><time>2026-03-20T19:29:50.000Z</time></trkpt>
        <trkpt lat="28.8267273" lon="104.8345232"><ele>377.37</ele><time>2026-03-20T19:30:02.000Z</time></trkpt>
        <trkpt lat="28.8267144" lon="104.8343982"><ele>377.83</ele><time>2026-03-20T19:30:12.000Z</time></trkpt>
        <trkpt lat="28.8266969" lon="104.8342886"><ele>377.94</ele><time>2026-03-20T19:30:20.000Z</time></trkpt>
        <trkpt lat="28.8266937" lon="104.83418"><ele>378.33</ele><time>2026-03-20T19:30:30.000Z</time></trkpt>
        <trkpt lat="28.8267065" lon="104.8340665"><ele>377.91</ele><time>2026-03-20T19:30:41.000Z</time></trkpt>
        <trkpt lat="28.8267317" lon="104.8339527"><ele>377.15</ele><time>2026-03-20T19:30:50.000Z</time></trkpt>
        <trkpt lat="28.8267832" lon="104.8338631"><ele>377.16</ele><time>2026-03-20T19:30:58.000Z</time></trkpt>
        <trkpt lat="28.826856" lon="104.8337869"><ele>376.56</ele><time>2026-03-20T19:31:08.000Z</time></trkpt>
        <trkpt lat="28.8269408" lon="104.8337362"><ele>376.32</ele><time>2026-03-20T19:31:21.000Z</time></trkpt>
        <trkpt lat="28.82704" lon="104.8337292"><ele>376.85</ele><time>2026-03-20T19:31:30.000Z</time></trkpt>
        <trkpt lat="28.8271366" lon="104.8337582"><ele>377.4</ele><time>2026-03-20T19:31:41.000Z</time></trkpt>
        <trkpt lat="28.8272083" lon="104.833833"><ele>377.26</ele><time>2026-03-20T19:31:48.000Z</time></trkpt>
        <trkpt lat="28.8272639" lon="104.833934"><ele>377.53</ele><time>2026-03-20T19:31:58.000Z</time></trkpt>
        <trkpt lat="28.827301" lon="104.8339984"><ele>377.58</ele><time>2026-03-20T19:32:04.000Z</time></trkpt>
        <trkpt lat="28.8273754" lon="104.8340052"><ele>377.79</ele><time>2026-03-20T19:32:16.000Z</time></trkpt>
        <trkpt lat="28.8274501" lon="104.833961"><ele>377.59</ele><time>2026-03-20T19:32:28.000Z</time></trkpt>
        <trkpt lat="28.8275286" lon="104.8339973"><ele>377.85</ele><time>2026-03-20T19:32:44.000Z</time></trkpt>
        <trkpt lat="28.8275866" lon="104.8339913"><ele>378.73</ele><time>2026-03-20T19:32:52.000Z</time></trkpt>
        <trkpt lat="28.827645" lon="104.8339081"><ele>379.24</ele><time>2026-03-20T19:34:31.000Z</time></trkpt>
        <trkpt lat="28.8277402" lon="104.8338755"><ele>379.57</ele><time>2026-03-20T19:34:41.000Z</time></trkpt>
        <trkpt lat="28.8278423" lon="104.833841"><ele>379.73</ele><time>2026-03-20T19:34:52.000Z</time></trkpt>
        <trkpt lat="28.8279382" lon="104.8338375"><ele>379.74</ele><time>2026-03-20T19:35:02.000Z</time></trkpt>
        <trkpt lat="28.8280059" lon="104.8337621"><ele>379.73</ele><time>2026-03-20T19:35:11.000Z</time></trkpt>
        <trkpt lat="28.8280784" lon="104.8336957"><ele>381.28</ele><time>2026-03-20T19:35:21.000Z</time></trkpt>
        <trkpt lat="28.8281625" lon="104.8336883"><ele>382.51</ele><time>2026-03-20T19:35:39.000Z</time></trkpt>
        <trkpt lat="28.8282536" lon="104.8336871"><ele>382.83</ele><time>2026-03-20T19:35:49.000Z</time></trkpt>
        <trkpt lat="28.8282995" lon="104.8337036"><ele>381.71</ele><time>2026-03-20T19:35:56.000Z</time></trkpt>
        <trkpt lat="28.8283676" lon="104.8336527"><ele>381.25</ele><time>2026-03-20T19:36:08.000Z</time></trkpt>
        <trkpt lat="28.8284566" lon="104.8336098"><ele>379.86</ele><time>2026-03-20T19:36:18.000Z</time></trkpt>
        <trkpt lat="28.8285573" lon="104.8335979"><ele>379.3</ele><time>2026-03-20T19:36:28.000Z</time></trkpt>
        <trkpt lat="28.8286503" lon="104.8335774"><ele>378.62</ele><time>2026-03-20T19:36:36.000Z</time></trkpt>
        <trkpt lat="28.8287453" lon="104.8335409"><ele>378.78</ele><time>2026-03-20T19:36:46.000Z</time></trkpt>
        <trkpt lat="28.8288089" lon="104.8334616"><ele>378.89</ele><time>2026-03-20T19:36:56.000Z</time></trkpt>
        <trkpt lat="28.8288316" lon="104.833344"><ele>379.46</ele><time>2026-03-20T19:37:07.000Z</time></trkpt>
        <trkpt lat="28.8288442" lon="104.8332402"><ele>380.55</ele><time>2026-03-20T19:37:15.000Z</time></trkpt>
        <trkpt lat="28.8288622" lon="104.8331205"><ele>381.08</ele><time>2026-03-20T19:37:28.000Z</time></trkpt>
        <trkpt lat="28.8289116" lon="104.8330156"><ele>380.79</ele><time>2026-03-20T19:37:36.000Z</time></trkpt>
        <trkpt lat="28.8289754" lon="104.8329751"><ele>380.1</ele><time>2026-03-20T19:37:44.000Z</time></trkpt>
        <trkpt lat="28.8290129" lon="104.8328979"><ele>380.35</ele><time>2026-03-20T19:37:56.000Z</time></trkpt>
        <trkpt lat="28.8290599" lon="104.8328152"><ele>380.55</ele><time>2026-03-20T19:38:08.000Z</time></trkpt>
        <trkpt lat="28.8291565" lon="104.8327891"><ele>381.43</ele><time>2026-03-20T19:38:30.000Z</time></trkpt>
        <trkpt lat="28.8292568" lon="104.8327782"><ele>380.86</ele><time>2026-03-20T19:38:38.000Z</time></trkpt>
        <trkpt lat="28.8293017" lon="104.8327025"><ele>380.24</ele><time>2026-03-20T19:38:53.000Z</time></trkpt>
        <trkpt lat="28.8292947" lon="104.8325918"><ele>379.68</ele><time>2026-03-20T19:39:03.000Z</time></trkpt>
        <trkpt lat="28.829284" lon="104.8324729"><ele>379.78</ele><time>2026-03-20T19:39:12.000Z</time></trkpt>
        <trkpt lat="28.8292643" lon="104.8323513"><ele>379.38</ele><time>2026-03-20T19:39:19.000Z</time></trkpt>
        <trkpt lat="28.8292452" lon="104.8322337"><ele>378.58</ele><time>2026-03-20T19:39:27.000Z</time></trkpt>
        <trkpt lat="28.8292285" lon="104.8321273"><ele>377.67</ele><time>2026-03-20T19:39:35.000Z</time></trkpt>
        <trkpt lat="28.8291471" lon="104.8321228"><ele>376.8</ele><time>2026-03-20T19:40:10.000Z</time></trkpt>
        <trkpt lat="28.8290709" lon="104.8321136"><ele>376.14</ele><time>2026-03-20T19:40:19.000Z</time></trkpt>
        <trkpt lat="28.8289756" lon="104.8321183"><ele>376.48</ele><time>2026-03-20T19:40:49.000Z</time></trkpt>
        <trkpt lat="28.8289013" lon="104.8320509"><ele>376.65</ele><time>2026-03-20T19:40:59.000Z</time></trkpt>
        <trkpt lat="28.8288159" lon="104.8320617"><ele>378.09</ele><time>2026-03-20T19:41:09.000Z</time></trkpt>
        <trkpt lat="28.8287239" lon="104.832081"><ele>378.37</ele><time>2026-03-20T19:41:21.000Z</time></trkpt>
        <trkpt lat="28.8286292" lon="104.8320919"><ele>379.51</ele><time>2026-03-20T19:41:33.000Z</time></trkpt>
        <trkpt lat="28.8285312" lon="104.8321147"><ele>380.63</ele><time>2026-03-20T19:41:46.000Z</time></trkpt>
        <trkpt lat="28.8285698" lon="104.8320812"><ele>381.86</ele><time>2026-03-20T19:41:55.000Z</time></trkpt>
        <trkpt lat="28.8285219" lon="104.8320824"><ele>381.53</ele><time>2026-03-20T19:42:35.000Z</time></trkpt>
        <trkpt lat="28.8284443" lon="104.8321178"><ele>381.46</ele><time>2026-03-20T19:42:43.000Z</time></trkpt>
        <trkpt lat="28.8283487" lon="104.8321445"><ele>381.95</ele><time>2026-03-20T19:42:55.000Z</time></trkpt>
        <trkpt lat="28.8282408" lon="104.8321515"><ele>382.13</ele><time>2026-03-20T19:43:15.000Z</time></trkpt>
        <trkpt lat="28.8281347" lon="104.8321611"><ele>382.07</ele><time>2026-03-20T19:43:24.000Z</time></trkpt>
        <trkpt lat="28.8280347" lon="104.8321672"><ele>382.35</ele><time>2026-03-20T19:43:33.000Z</time></trkpt>
        <trkpt lat="28.8279503" lon="104.8322068"><ele>381.86</ele><time>2026-03-20T19:43:50.000Z</time></trkpt>
        <trkpt lat="28.8278657" lon="104.8322609"><ele>379.9</ele><time>2026-03-20T19:44:17.000Z</time></trkpt>
        <trkpt lat="28.8278013" lon="104.8323083"><ele>376.65</ele><time>2026-03-20T19:44:34.000Z</time></trkpt>
        <trkpt lat="28.8277271" lon="104.8323781"><ele>374.18</ele><time>2026-03-20T19:45:13.000Z</time></trkpt>
        <trkpt lat="28.8276699" lon="104.832468"><ele>369.92</ele><time>2026-03-20T19:45:24.000Z</time></trkpt>
        <trkpt lat="28.8276485" lon="104.8325079"><ele>366.94</ele><time>2026-03-20T19:45:28.000Z</time></trkpt>
        <trkpt lat="28.8275976" lon="104.8325664"><ele>365.67</ele><time>2026-03-20T19:46:26.000Z</time></trkpt>
        <trkpt lat="28.8275544" lon="104.8325063"><ele>365.71</ele><time>2026-03-20T19:47:12.000Z</time></trkpt>
        <trkpt lat="28.8275261" lon="104.8324441"><ele>363.65</ele><time>2026-03-20T19:47:20.000Z</time></trkpt>
        <trkpt lat="28.827454" lon="104.8323858"><ele>362.56</ele><time>2026-03-20T19:47:42.000Z</time></trkpt>
        <trkpt lat="28.8274555" lon="104.8322733"><ele>362.45</ele><time>2026-03-20T19:47:52.000Z</time></trkpt>
        <trkpt lat="28.8274551" lon="104.8322185"><ele>363.43</ele><time>2026-03-20T19:47:56.000Z</time></trkpt>
        <trkpt lat="28.827391" lon="104.8322956"><ele>364.17</ele><time>2026-03-20T19:49:15.000Z</time></trkpt>
        <trkpt lat="28.8273004" lon="104.8323323"><ele>364.4</ele><time>2026-03-20T19:54:45.000Z</time></trkpt>
        <trkpt lat="28.8272712" lon="104.8324332"><ele>366.81</ele><time>2026-03-20T19:55:04.000Z</time></trkpt>
        <trkpt lat="28.8272087" lon="104.8325065"><ele>369.56</ele><time>2026-03-20T19:55:15.000Z</time></trkpt>
        <trkpt lat="28.827192" lon="104.8325232"><ele>371.84</ele><time>2026-03-20T19:55:17.000Z</time></trkpt>
        <trkpt lat="28.8272553" lon="104.8324699"><ele>373.51</ele><time>2026-03-20T19:55:38.000Z</time></trkpt>
        <trkpt lat="28.8273317" lon="104.832379"><ele>374.66</ele><time>2026-03-20T19:55:53.000Z</time></trkpt>
        <trkpt lat="28.8273618" lon="104.8323327"><ele>374.45</ele><time>2026-03-20T19:55:57.000Z</time></trkpt>
        <trkpt lat="28.8274393" lon="104.8323522"><ele>373.56</ele><time>2026-03-20T19:56:42.000Z</time></trkpt>
        <trkpt lat="28.8274678" lon="104.8323704"><ele>370.61</ele><time>2026-03-20T19:56:44.000Z</time></trkpt>
        <trkpt lat="28.8274487" lon="104.8324576"><ele>368.75</ele><time>2026-03-20T19:56:57.000Z</time></trkpt>
        <trkpt lat="28.8273962" lon="104.8325746"><ele>367.96</ele><time>2026-03-20T19:57:06.000Z</time></trkpt>
        <trkpt lat="28.8273428" lon="104.8326952"><ele>367.75</ele><time>2026-03-20T19:57:16.000Z</time></trkpt>
        <trkpt lat="28.8273104" lon="104.8327563"><ele>367.12</ele><time>2026-03-20T19:57:24.000Z</time></trkpt>
        <trkpt lat="28.8273619" lon="104.8328445"><ele>367.21</ele><time>2026-03-20T20:00:05.000Z</time></trkpt>
        <trkpt lat="28.8274313" lon="104.8329202"><ele>366.63</ele><time>2026-03-20T20:00:15.000Z</time></trkpt>
        <trkpt lat="28.8275141" lon="104.8328763"><ele>366.28</ele><time>2026-03-20T20:00:27.000Z</time></trkpt>
        <trkpt lat="28.8276128" lon="104.8328502"><ele>366.62</ele><time>2026-03-20T20:00:38.000Z</time></trkpt>
        <trkpt lat="28.8276403" lon="104.8328414"><ele>366.89</ele><time>2026-03-20T20:00:40.000Z</time></trkpt>
        <trkpt lat="28.8277037" lon="104.8328796"><ele>367.03</ele><time>2026-03-20T20:01:03.000Z</time></trkpt>
        <trkpt lat="28.8277743" lon="104.8328362"><ele>367.88</ele><time>2026-03-20T20:01:13.000Z</time></trkpt>
        <trkpt lat="28.8278175" lon="104.832824"><ele>368.86</ele><time>2026-03-20T20:01:19.000Z</time></trkpt>
        <trkpt lat="28.8278187" lon="104.8328989"><ele>369.85</ele><time>2026-03-20T20:01:29.000Z</time></trkpt>
        <trkpt lat="28.8278573" lon="104.832942"><ele>369.88</ele><time>2026-03-20T20:01:42.000Z</time></trkpt>
        <trkpt lat="28.8278638" lon="104.8328625"><ele>370.52</ele><time>2026-03-20T20:02:03.000Z</time></trkpt>
        <trkpt lat="28.8279057" lon="104.8327801"><ele>371.92</ele><time>2026-03-20T20:02:14.000Z</time></trkpt>
        <trkpt lat="28.8279337" lon="104.8326763"><ele>373.6</ele><time>2026-03-20T20:02:33.000Z</time></trkpt>
        <trkpt lat="28.8279655" lon="104.832629"><ele>375.51</ele><time>2026-03-20T20:02:41.000Z</time></trkpt>
        <trkpt lat="28.8279859" lon="104.8325412"><ele>376.64</ele><time>2026-03-20T20:02:59.000Z</time></trkpt>
        <trkpt lat="28.8279866" lon="104.8324964"><ele>377.74</ele><time>2026-03-20T20:03:03.000Z</time></trkpt>
        <trkpt lat="28.8279848" lon="104.8324003"><ele>378.71</ele><time>2026-03-20T20:03:16.000Z</time></trkpt>
        <trkpt lat="28.8279868" lon="104.8322824"><ele>378.97</ele><time>2026-03-20T20:03:25.000Z</time></trkpt>
        <trkpt lat="28.8280317" lon="104.8321736"><ele>379.61</ele><time>2026-03-20T20:03:36.000Z</time></trkpt>
        <trkpt lat="28.8280887" lon="104.8320828"><ele>380.58</ele><time>2026-03-20T20:03:47.000Z</time></trkpt>
        <trkpt lat="28.8281667" lon="104.8321004"><ele>382.6</ele><time>2026-03-20T20:03:55.000Z</time></trkpt>
        <trkpt lat="28.8282654" lon="104.8320963"><ele>383.43</ele><time>2026-03-20T20:04:06.000Z</time></trkpt>
        <trkpt lat="28.8283632" lon="104.8320898"><ele>384.82</ele><time>2026-03-20T20:04:16.000Z</time></trkpt>
        <trkpt lat="28.8284683" lon="104.8320993"><ele>386.21</ele><time>2026-03-20T20:04:25.000Z</time></trkpt>
        <trkpt lat="28.8285726" lon="104.8320952"><ele>386.42</ele><time>2026-03-20T20:04:39.000Z</time></trkpt>
        <trkpt lat="28.8286284" lon="104.8320847"><ele>385.69</ele><time>2026-03-20T20:04:45.000Z</time></trkpt>
        <trkpt lat="28.8287092" lon="104.8320818"><ele>384.44</ele><time>2026-03-20T20:04:57.000Z</time></trkpt>
        <trkpt lat="28.8288032" lon="104.8320912"><ele>383.97</ele><time>2026-03-20T20:05:09.000Z</time></trkpt>
        <trkpt lat="28.8288981" lon="104.8320823"><ele>382.83</ele><time>2026-03-20T20:05:20.000Z</time></trkpt>
        <trkpt lat="28.8289909" lon="104.8321163"><ele>381.52</ele><time>2026-03-20T20:05:31.000Z</time></trkpt>
        <trkpt lat="28.8290764" lon="104.8321733"><ele>380.53</ele><time>2026-03-20T20:05:42.000Z</time></trkpt>
        <trkpt lat="28.8291586" lon="104.83216"><ele>379.86</ele><time>2026-03-20T20:05:49.000Z</time></trkpt>
        <trkpt lat="28.8292362" lon="104.8320837"><ele>379.55</ele><time>2026-03-20T20:05:59.000Z</time></trkpt>
        <trkpt lat="28.829323" lon="104.8320647"><ele>379.73</ele><time>2026-03-20T20:06:10.000Z</time></trkpt>
        <trkpt lat="28.8294069" lon="104.8320926"><ele>380.83</ele><time>2026-03-20T20:06:19.000Z</time></trkpt>
        <trkpt lat="28.8294912" lon="104.8321454"><ele>381.96</ele><time>2026-03-20T20:06:29.000Z</time></trkpt>
        <trkpt lat="28.829581" lon="104.8321917"><ele>383.96</ele><time>2026-03-20T20:06:39.000Z</time></trkpt>
        <trkpt lat="28.8296554" lon="104.8322606"><ele>384.71</ele><time>2026-03-20T20:06:50.000Z</time></trkpt>
        <trkpt lat="28.8297363" lon="104.8323679"><ele>385.11</ele><time>2026-03-20T20:06:59.000Z</time></trkpt>
        <trkpt lat="28.8298292" lon="104.8323984"><ele>383.38</ele><time>2026-03-20T20:07:12.000Z</time></trkpt>
        <trkpt lat="28.8299157" lon="104.8324562"><ele>382.34</ele><time>2026-03-20T20:07:23.000Z</time></trkpt>
        <trkpt lat="28.8300109" lon="104.8324952"><ele>382.04</ele><time>2026-03-20T20:07:34.000Z</time></trkpt>
        <trkpt lat="28.8301033" lon="104.8325234"><ele>381.64</ele><time>2026-03-20T20:07:41.000Z</time></trkpt>
        <trkpt lat="28.8301831" lon="104.8325811"><ele>382.26</ele><time>2026-03-20T20:07:51.000Z</time></trkpt>
        <trkpt lat="28.8302297" lon="104.8326825"><ele>382.56</ele><time>2026-03-20T20:08:04.000Z</time></trkpt>
        <trkpt lat="28.8302238" lon="104.8327314"><ele>381.8</ele><time>2026-03-20T20:08:07.000Z</time></trkpt>
        <trkpt lat="28.8301939" lon="104.8328178"><ele>382.18</ele><time>2026-03-20T20:08:21.000Z</time></trkpt>
        <trkpt lat="28.8301825" lon="104.8329315"><ele>382.46</ele><time>2026-03-20T20:08:33.000Z</time></trkpt>
        <trkpt lat="28.830175" lon="104.8330526"><ele>382.35</ele><time>2026-03-20T20:08:43.000Z</time></trkpt>
        <trkpt lat="28.8301491" lon="104.8331744"><ele>380.56</ele><time>2026-03-20T20:08:56.000Z</time></trkpt>
        <trkpt lat="28.8300983" lon="104.8332719"><ele>378.89</ele><time>2026-03-20T20:09:03.000Z</time></trkpt>
        <trkpt lat="28.8300979" lon="104.8333744"><ele>377.55</ele><time>2026-03-20T20:09:13.000Z</time></trkpt>
        <trkpt lat="28.8300377" lon="104.8334408"><ele>376.07</ele><time>2026-03-20T20:09:23.000Z</time></trkpt>
        <trkpt lat="28.8300962" lon="104.8334276"><ele>374.53</ele><time>2026-03-20T20:10:02.000Z</time></trkpt>
        <trkpt lat="28.8301835" lon="104.8333798"><ele>373.66</ele><time>2026-03-20T20:10:09.000Z</time></trkpt>
        <trkpt lat="28.8302413" lon="104.8333946"><ele>372.48</ele><time>2026-03-20T20:10:15.000Z</time></trkpt>
        <trkpt lat="28.8303197" lon="104.8334486"><ele>371.92</ele><time>2026-03-20T20:10:45.000Z</time></trkpt>
        <trkpt lat="28.8304068" lon="104.8334188"><ele>371.58</ele><time>2026-03-20T20:11:11.000Z</time></trkpt>
        <trkpt lat="28.8304329" lon="104.833428"><ele>370.44</ele><time>2026-03-20T20:11:13.000Z</time></trkpt>
        <trkpt lat="28.8304723" lon="104.8333635"><ele>369.86</ele><time>2026-03-20T20:11:29.000Z</time></trkpt>
        <trkpt lat="28.8305392" lon="104.8333806"><ele>369.66</ele><time>2026-03-20T20:11:39.000Z</time></trkpt>
        <trkpt lat="28.8306328" lon="104.8333863"><ele>368.48</ele><time>2026-03-20T20:11:54.000Z</time></trkpt>
        <trkpt lat="28.8307282" lon="104.8333848"><ele>367.61</ele><time>2026-03-20T20:12:01.000Z</time></trkpt>
        <trkpt lat="28.8308312" lon="104.8334209"><ele>367.2</ele><time>2026-03-20T20:12:11.000Z</time></trkpt>
        <trkpt lat="28.8309109" lon="104.8335016"><ele>366.75</ele><time>2026-03-20T20:12:22.000Z</time></trkpt>
        <trkpt lat="28.8309905" lon="104.8335634"><ele>365.75</ele><time>2026-03-20T20:12:29.000Z</time></trkpt>
        <trkpt lat="28.8310822" lon="104.8335696"><ele>365.2</ele><time>2026-03-20T20:12:40.000Z</time></trkpt>
        <trkpt lat="28.8311324" lon="104.8334888"><ele>364.32</ele><time>2026-03-20T20:12:49.000Z</time></trkpt>
        <trkpt lat="28.8311558" lon="104.8333715"><ele>364.57</ele><time>2026-03-20T20:13:08.000Z</time></trkpt>
        <trkpt lat="28.831221" lon="104.8332883"><ele>364.08</ele><time>2026-03-20T20:13:17.000Z</time></trkpt>
        <trkpt lat="28.8312793" lon="104.8332965"><ele>363.39</ele><time>2026-03-20T20:13:25.000Z</time></trkpt>
        <trkpt lat="28.8313365" lon="104.8334055"><ele>362.84</ele><time>2026-03-20T20:15:46.000Z</time></trkpt>
        <trkpt lat="28.8314263" lon="104.8334375"><ele>363.3</ele><time>2026-03-20T20:16:04.000Z</time></trkpt>
        <trkpt lat="28.8315318" lon="104.8334316"><ele>364.02</ele><time>2026-03-20T20:16:15.000Z</time></trkpt>
        <trkpt lat="28.831564" lon="104.833429"><ele>364.61</ele><time>2026-03-20T20:16:17.000Z</time></trkpt>
        <trkpt lat="28.8316374" lon="104.8334063"><ele>364.97</ele><time>2026-03-20T20:16:31.000Z</time></trkpt>
        <trkpt lat="28.8317205" lon="104.8333624"><ele>364.66</ele><time>2026-03-20T20:16:41.000Z</time></trkpt>
        <trkpt lat="28.8318099" lon="104.8333245"><ele>365.05</ele><time>2026-03-20T20:16:51.000Z</time></trkpt>
        <trkpt lat="28.8319003" lon="104.833272"><ele>365.7</ele><time>2026-03-20T20:17:03.000Z</time></trkpt>
        <trkpt lat="28.8319902" lon="104.83322"><ele>365.85</ele><time>2026-03-20T20:17:13.000Z</time></trkpt>
        <trkpt lat="28.8320847" lon="104.8331666"><ele>364.8</ele><time>2026-03-20T20:17:23.000Z</time></trkpt>
        <trkpt lat="28.832152" lon="104.833131"><ele>364.02</ele><time>2026-03-20T20:17:31.000Z</time></trkpt>
        <trkpt lat="28.832239" lon="104.8331381"><ele>362.85</ele><time>2026-03-20T20:17:45.000Z</time></trkpt>
        <trkpt lat="28.8322626" lon="104.8331505"><ele>361.76</ele><time>2026-03-20T20:17:47.000Z</time></trkpt>
        <trkpt lat="28.8323481" lon="104.8331324"><ele>361.04</ele><time>2026-03-20T20:20:01.000Z</time></trkpt>
        <trkpt lat="28.8323982" lon="104.833191"><ele>360.85</ele><time>2026-03-20T20:20:11.000Z</time></trkpt>
        <trkpt lat="28.8324477" lon="104.8332916"><ele>361.01</ele><time>2026-03-20T20:20:32.000Z</time></trkpt>
        <trkpt lat="28.8324855" lon="104.8334012"><ele>362.11</ele><time>2026-03-20T20:20:41.000Z</time></trkpt>
        <trkpt lat="28.8324976" lon="104.8335171"><ele>363.01</ele><time>2026-03-20T20:20:51.000Z</time></trkpt>
        <trkpt lat="28.8325178" lon="104.8336368"><ele>363.07</ele><time>2026-03-20T20:21:01.000Z</time></trkpt>
        <trkpt lat="28.8325466" lon="104.8337437"><ele>362.88</ele><time>2026-03-20T20:21:13.000Z</time></trkpt>
        <trkpt lat="28.8325738" lon="104.8338457"><ele>362.7</ele><time>2026-03-20T20:21:23.000Z</time></trkpt>
        <trkpt lat="28.8325833" lon="104.8338713"><ele>362.14</ele><time>2026-03-20T20:21:25.000Z</time></trkpt>
        <trkpt lat="28.832508" lon="104.833912"><ele>361.69</ele><time>2026-03-20T20:21:48.000Z</time></trkpt>
        <trkpt lat="28.8325412" lon="104.8339748"><ele>361.12</ele><time>2026-03-20T20:22:00.000Z</time></trkpt>
        <trkpt lat="28.8326166" lon="104.8340543"><ele>359.13</ele><time>2026-03-20T20:22:10.000Z</time></trkpt>
        <trkpt lat="28.8326894" lon="104.8341344"><ele>358.58</ele><time>2026-03-20T20:22:17.000Z</time></trkpt>
        <trkpt lat="28.8327806" lon="104.8341946"><ele>357.47</ele><time>2026-03-20T20:22:27.000Z</time></trkpt>
        <trkpt lat="28.8328793" lon="104.8342281"><ele>357.6</ele><time>2026-03-20T20:22:38.000Z</time></trkpt>
        <trkpt lat="28.8329662" lon="104.8341922"><ele>357.78</ele><time>2026-03-20T20:22:47.000Z</time></trkpt>
        <trkpt lat="28.833034" lon="104.8341603"><ele>358.17</ele><time>2026-03-20T20:22:55.000Z</time></trkpt>
        <trkpt lat="28.833101" lon="104.8341967"><ele>358.33</ele><time>2026-03-20T20:23:15.000Z</time></trkpt>
        <trkpt lat="28.8331638" lon="104.8342859"><ele>358.15</ele><time>2026-03-20T20:23:25.000Z</time></trkpt>
        <trkpt lat="28.8332517" lon="104.8343572"><ele>357.55</ele><time>2026-03-20T20:23:35.000Z</time></trkpt>
        <trkpt lat="28.8333544" lon="104.8343974"><ele>356.27</ele><time>2026-03-20T20:23:45.000Z</time></trkpt>
        <trkpt lat="28.8334612" lon="104.8343971"><ele>355.86</ele><time>2026-03-20T20:23:55.000Z</time></trkpt>
        <trkpt lat="28.8335672" lon="104.8344146"><ele>355.79</ele><time>2026-03-20T20:24:05.000Z</time></trkpt>
        <trkpt lat="28.8336387" lon="104.8344854"><ele>356.09</ele><time>2026-03-20T20:24:15.000Z</time></trkpt>
        <trkpt lat="28.8336697" lon="104.8345939"><ele>356.44</ele><time>2026-03-20T20:24:27.000Z</time></trkpt>
        <trkpt lat="28.8337015" lon="104.834697"><ele>355.49</ele><time>2026-03-20T20:24:37.000Z</time></trkpt>
        <trkpt lat="28.8337767" lon="104.8347572"><ele>354.54</ele><time>2026-03-20T20:24:49.000Z</time></trkpt>
        <trkpt lat="28.8338712" lon="104.8347419"><ele>353.41</ele><time>2026-03-20T20:25:05.000Z</time></trkpt>
        <trkpt lat="28.8339597" lon="104.8347619"><ele>352.92</ele><time>2026-03-20T20:25:16.000Z</time></trkpt>
        <trkpt lat="28.8340537" lon="104.8348003"><ele>353.37</ele><time>2026-03-20T20:25:40.000Z</time></trkpt>
        <trkpt lat="28.8341427" lon="104.8348151"><ele>352.65</ele><time>2026-03-20T20:25:51.000Z</time></trkpt>
        <trkpt lat="28.834242" lon="104.8347988"><ele>352.29</ele><time>2026-03-20T20:26:09.000Z</time></trkpt>
        <trkpt lat="28.8343177" lon="104.8347325"><ele>352.39</ele><time>2026-03-20T20:26:23.000Z</time></trkpt>
        <trkpt lat="28.8343865" lon="104.8347715"><ele>352.71</ele><time>2026-03-20T20:26:55.000Z</time></trkpt>
        <trkpt lat="28.8344622" lon="104.8348482"><ele>352.5</ele><time>2026-03-20T20:27:05.000Z</time></trkpt>
        <trkpt lat="28.8345388" lon="104.8349312"><ele>352.3</ele><time>2026-03-20T20:27:16.000Z</time></trkpt>
        <trkpt lat="28.8346207" lon="104.8349232"><ele>352.32</ele><time>2026-03-20T20:27:25.000Z</time></trkpt>
        <trkpt lat="28.8346759" lon="104.8348021"><ele>352.7</ele><time>2026-03-20T20:30:52.000Z</time></trkpt>
        <trkpt lat="28.8347251" lon="104.8348923"><ele>353.08</ele><time>2026-03-20T20:31:08.000Z</time></trkpt>
        <trkpt lat="28.834718" lon="104.8349926"><ele>353.96</ele><time>2026-03-20T20:31:20.000Z</time></trkpt>
        <trkpt lat="28.834645" lon="104.8350643"><ele>355.65</ele><time>2026-03-20T20:31:38.000Z</time></trkpt>
        <trkpt lat="28.8345626" lon="104.8351528"><ele>356.61</ele><time>2026-03-20T20:31:50.000Z</time></trkpt>
        <trkpt lat="28.8344836" lon="104.8352492"><ele>358.13</ele><time>2026-03-20T20:32:00.000Z</time></trkpt>
        <trkpt lat="28.8344134" lon="104.835339"><ele>359.24</ele><time>2026-03-20T20:32:08.000Z</time></trkpt>
        <trkpt lat="28.8343442" lon="104.8354295"><ele>359.97</ele><time>2026-03-20T20:32:16.000Z</time></trkpt>
        <trkpt lat="28.8342734" lon="104.8355104"><ele>360.77</ele><time>2026-03-20T20:32:24.000Z</time></trkpt>
        <trkpt lat="28.834194" lon="104.8355838"><ele>362.32</ele><time>2026-03-20T20:32:36.000Z</time></trkpt>
        <trkpt lat="28.8341129" lon="104.8355588"><ele>362.06</ele><time>2026-03-20T20:32:44.000Z</time></trkpt>
        <trkpt lat="28.8340352" lon="104.8354747"><ele>362.63</ele><time>2026-03-20T20:32:56.000Z</time></trkpt>
        <trkpt lat="28.8339515" lon="104.8354648"><ele>364.23</ele><time>2026-03-20T20:33:08.000Z</time></trkpt>
        <trkpt lat="28.8338603" lon="104.8354618"><ele>364.52</ele><time>2026-03-20T20:33:19.000Z</time></trkpt>
        <trkpt lat="28.8337666" lon="104.8354918"><ele>365.24</ele><time>2026-03-20T20:33:29.000Z</time></trkpt>
        <trkpt lat="28.8336791" lon="104.8355525"><ele>364.66</ele><time>2026-03-20T20:33:38.000Z</time></trkpt>
        <trkpt lat="28.8335987" lon="104.8356256"><ele>365.38</ele><time>2026-03-20T20:33:48.000Z</time></trkpt>
        <trkpt lat="28.8335022" lon="104.8356613"><ele>366.71</ele><time>2026-03-20T20:33:58.000Z</time></trkpt>
        <trkpt lat="28.8334087" lon="104.8356789"><ele>367.58</ele><time>2026-03-20T20:34:06.000Z</time></trkpt>
        <trkpt lat="28.833325" lon="104.8357402"><ele>368.67</ele><time>2026-03-20T20:34:18.000Z</time></trkpt>
        <trkpt lat="28.8332568" lon="104.835817"><ele>369.39</ele><time>2026-03-20T20:34:29.000Z</time></trkpt>
        <trkpt lat="28.8331879" lon="104.8359008"><ele>369.83</ele><time>2026-03-20T20:34:38.000Z</time></trkpt>
        <trkpt lat="28.8331213" lon="104.8359779"><ele>370.25</ele><time>2026-03-20T20:34:48.000Z</time></trkpt>
        <trkpt lat="28.8330541" lon="104.8360705"><ele>370.29</ele><time>2026-03-20T20:35:00.000Z</time></trkpt>
        <trkpt lat="28.8330006" lon="104.8361672"><ele>371.2</ele><time>2026-03-20T20:35:10.000Z</time></trkpt>
        <trkpt lat="28.8329841" lon="104.8362723"><ele>370.59</ele><time>2026-03-20T20:35:18.000Z</time></trkpt>
        <trkpt lat="28.8329871" lon="104.8363944"><ele>369.16</ele><time>2026-03-20T20:35:28.000Z</time></trkpt>
        <trkpt lat="28.8329783" lon="104.8365063"><ele>369.26</ele><time>2026-03-20T20:35:38.000Z</time></trkpt>
        <trkpt lat="28.8330464" lon="104.8365688"><ele>370.82</ele><time>2026-03-20T20:35:54.000Z</time></trkpt>
        <trkpt lat="28.8331468" lon="104.8365504"><ele>371.53</ele><time>2026-03-20T20:36:04.000Z</time></trkpt>
        <trkpt lat="28.8332524" lon="104.8364955"><ele>370.27</ele><time>2026-03-20T20:36:14.000Z</time></trkpt>
        <trkpt lat="28.8333633" lon="104.8364536"><ele>369.41</ele><time>2026-03-20T20:36:25.000Z</time></trkpt>
        <trkpt lat="28.8334672" lon="104.8364018"><ele>368.66</ele><time>2026-03-20T20:36:34.000Z</time></trkpt>
        <trkpt lat="28.8335693" lon="104.8364085"><ele>367.57</ele><time>2026-03-20T20:36:42.000Z</time></trkpt>
        <trkpt lat="28.8336175" lon="104.836489"><ele>365.92</ele><time>2026-03-20T20:36:50.000Z</time></trkpt>
        <trkpt lat="28.8335795" lon="104.8365888"><ele>365.12</ele><time>2026-03-20T20:36:58.000Z</time></trkpt>
        <trkpt lat="28.8335161" lon="104.8366879"><ele>364.55</ele><time>2026-03-20T20:37:07.000Z</time></trkpt>
        <trkpt lat="28.8334773" lon="104.8367954"><ele>365.15</ele><time>2026-03-20T20:37:16.000Z</time></trkpt>
        <trkpt lat="28.8334913" lon="104.8369045"><ele>363.8</ele><time>2026-03-20T20:37:26.000Z</time></trkpt>
        <trkpt lat="28.8335058" lon="104.8370184"><ele>362.13</ele><time>2026-03-20T20:37:37.000Z</time></trkpt>
        <trkpt lat="28.8335158" lon="104.8371381"><ele>360.63</ele><time>2026-03-20T20:37:46.000Z</time></trkpt>
        <trkpt lat="28.8335079" lon="104.8372537"><ele>358.64</ele><time>2026-03-20T20:37:56.000Z</time></trkpt>
        <trkpt lat="28.8335652" lon="104.8373334"><ele>355.46</ele><time>2026-03-20T20:38:07.000Z</time></trkpt>
        <trkpt lat="28.8336682" lon="104.8373366"><ele>352.03</ele><time>2026-03-20T20:38:18.000Z</time></trkpt>
        <trkpt lat="28.8337892" lon="104.8373097"><ele>349.82</ele><time>2026-03-20T20:38:28.000Z</time></trkpt>
        <trkpt lat="28.8338975" lon="104.8373067"><ele>346.66</ele><time>2026-03-20T20:38:36.000Z</time></trkpt>
        <trkpt lat="28.8339907" lon="104.837331"><ele>344.5</ele><time>2026-03-20T20:38:47.000Z</time></trkpt>
        <trkpt lat="28.8340591" lon="104.8373688"><ele>343.55</ele><time>2026-03-20T20:38:56.000Z</time></trkpt>
        <trkpt lat="28.8341444" lon="104.837383"><ele>343.94</ele><time>2026-03-20T20:39:13.000Z</time></trkpt>
        <trkpt lat="28.8342397" lon="104.8373802"><ele>343.45</ele><time>2026-03-20T20:39:22.000Z</time></trkpt>
        <trkpt lat="28.8343351" lon="104.8373767"><ele>344.08</ele><time>2026-03-20T20:39:32.000Z</time></trkpt>
        <trkpt lat="28.834431" lon="104.8374171"><ele>345.85</ele><time>2026-03-20T20:39:44.000Z</time></trkpt>
        <trkpt lat="28.8345195" lon="104.8374587"><ele>348.62</ele><time>2026-03-20T20:39:58.000Z</time></trkpt>
        <trkpt lat="28.8345986" lon="104.8375239"><ele>350.09</ele><time>2026-03-20T20:40:14.000Z</time></trkpt>
        <trkpt lat="28.8346556" lon="104.8375964"><ele>352.1</ele><time>2026-03-20T20:40:32.000Z</time></trkpt>
        <trkpt lat="28.8347302" lon="104.8376718"><ele>352.67</ele><time>2026-03-20T20:41:46.000Z</time></trkpt>
        <trkpt lat="28.8348129" lon="104.8377174"><ele>354.31</ele><time>2026-03-20T20:41:56.000Z</time></trkpt>
        <trkpt lat="28.8348868" lon="104.8377791"><ele>356.03</ele><time>2026-03-20T20:42:10.000Z</time></trkpt>
        <trkpt lat="28.8349228" lon="104.8379012"><ele>357.5</ele><time>2026-03-20T20:43:30.000Z</time></trkpt>
        <trkpt lat="28.8350075" lon="104.8379667"><ele>358.99</ele><time>2026-03-20T20:43:49.000Z</time></trkpt>
        <trkpt lat="28.8350762" lon="104.8380489"><ele>359.49</ele><time>2026-03-20T20:43:58.000Z</time></trkpt>
        <trkpt lat="28.8351311" lon="104.8381219"><ele>360.49</ele><time>2026-03-20T20:44:10.000Z</time></trkpt>
        <trkpt lat="28.8351702" lon="104.8382117"><ele>361.59</ele><time>2026-03-20T20:44:44.000Z</time></trkpt>
        <trkpt lat="28.8351542" lon="104.8383159"><ele>363.26</ele><time>2026-03-20T20:44:55.000Z</time></trkpt>
        <trkpt lat="28.8351062" lon="104.8384163"><ele>365.49</ele><time>2026-03-20T20:45:04.000Z</time></trkpt>
        <trkpt lat="28.8350526" lon="104.8385215"><ele>366.89</ele><time>2026-03-20T20:45:14.000Z</time></trkpt>
        <trkpt lat="28.8350321" lon="104.8386209"><ele>368.13</ele><time>2026-03-20T20:45:26.000Z</time></trkpt>
        <trkpt lat="28.8350759" lon="104.838726"><ele>368.9</ele><time>2026-03-20T20:45:40.000Z</time></trkpt>
        <trkpt lat="28.8351388" lon="104.8388201"><ele>368.01</ele><time>2026-03-20T20:45:52.000Z</time></trkpt>
        <trkpt lat="28.8352188" lon="104.8388864"><ele>368.19</ele><time>2026-03-20T20:46:04.000Z</time></trkpt>
        <trkpt lat="28.8353008" lon="104.8389478"><ele>368.84</ele><time>2026-03-20T20:46:14.000Z</time></trkpt>
        <trkpt lat="28.8353408" lon="104.8390474"><ele>369.36</ele><time>2026-03-20T20:46:24.000Z</time></trkpt>
        <trkpt lat="28.8353523" lon="104.839158"><ele>369.17</ele><time>2026-03-20T20:46:36.000Z</time></trkpt>
        <trkpt lat="28.8353239" lon="104.8392746"><ele>368.35</ele><time>2026-03-20T20:46:46.000Z</time></trkpt>
        <trkpt lat="28.8352936" lon="104.8393837"><ele>368.95</ele><time>2026-03-20T20:46:56.000Z</time></trkpt>
        <trkpt lat="28.8352895" lon="104.8394906"><ele>369.31</ele><time>2026-03-20T20:47:12.000Z</time></trkpt>
        <trkpt lat="28.8353025" lon="104.8395977"><ele>369.29</ele><time>2026-03-20T20:47:23.000Z</time></trkpt>
        <trkpt lat="28.8353436" lon="104.8396978"><ele>369.57</ele><time>2026-03-20T20:47:32.000Z</time></trkpt>
        <trkpt lat="28.8353985" lon="104.8397657"><ele>368.84</ele><time>2026-03-20T20:47:43.000Z</time></trkpt>
        <trkpt lat="28.8354947" lon="104.8398106"><ele>368.79</ele><time>2026-03-20T20:47:54.000Z</time></trkpt>
        <trkpt lat="28.8355907" lon="104.8398393"><ele>367.8</ele><time>2026-03-20T20:48:02.000Z</time></trkpt>
        <trkpt lat="28.8356926" lon="104.8398631"><ele>368.14</ele><time>2026-03-20T20:48:12.000Z</time></trkpt>
        <trkpt lat="28.8357888" lon="104.8398843"><ele>368.82</ele><time>2026-03-20T20:48:20.000Z</time></trkpt>
        <trkpt lat="28.8358912" lon="104.8399011"><ele>370.91</ele><time>2026-03-20T20:48:30.000Z</time></trkpt>
        <trkpt lat="28.8359873" lon="104.8399554"><ele>371.68</ele><time>2026-03-20T20:48:40.000Z</time></trkpt>
        <trkpt lat="28.8359627" lon="104.839976"><ele>371.94</ele><time>2026-03-20T20:48:50.000Z</time></trkpt>
        <trkpt lat="28.8360254" lon="104.8399949"><ele>371.72</ele><time>2026-03-20T20:49:04.000Z</time></trkpt>
        <trkpt lat="28.8361079" lon="104.8400234"><ele>370.19</ele><time>2026-03-20T20:49:12.000Z</time></trkpt>
        <trkpt lat="28.8362001" lon="104.8400346"><ele>369.32</ele><time>2026-03-20T20:49:20.000Z</time></trkpt>
        <trkpt lat="28.8362933" lon="104.8399998"><ele>369.14</ele><time>2026-03-20T20:49:30.000Z</time></trkpt>
        <trkpt lat="28.8363857" lon="104.8399729"><ele>368.54</ele><time>2026-03-20T20:49:56.000Z</time></trkpt>
        <trkpt lat="28.8364344" lon="104.8400362"><ele>366.62</ele><time>2026-03-20T20:50:06.000Z</time></trkpt>
        <trkpt lat="28.8364533" lon="104.8401117"><ele>366.72</ele><time>2026-03-20T20:50:16.000Z</time></trkpt>
        <trkpt lat="28.8365304" lon="104.8401357"><ele>367.45</ele><time>2026-03-20T20:50:40.000Z</time></trkpt>
        <trkpt lat="28.8366229" lon="104.8401074"><ele>368.42</ele><time>2026-03-20T20:50:50.000Z</time></trkpt>
        <trkpt lat="28.8367127" lon="104.840063"><ele>369.02</ele><time>2026-03-20T20:50:58.000Z</time></trkpt>
        <trkpt lat="28.8367972" lon="104.8400335"><ele>369.6</ele><time>2026-03-20T20:51:08.000Z</time></trkpt>
        <trkpt lat="28.8368892" lon="104.8400101"><ele>369.05</ele><time>2026-03-20T20:51:58.000Z</time></trkpt>
        <trkpt lat="28.8369369" lon="104.8399764"><ele>368.05</ele><time>2026-03-20T20:52:06.000Z</time></trkpt>
        <trkpt lat="28.837017" lon="104.8399606"><ele>368.52</ele><time>2026-03-20T20:52:16.000Z</time></trkpt>
        <trkpt lat="28.837111" lon="104.8399792"><ele>368.06</ele><time>2026-03-20T20:52:30.000Z</time></trkpt>
        <trkpt lat="28.83721" lon="104.8400267"><ele>367.17</ele><time>2026-03-20T20:52:40.000Z</time></trkpt>
        <trkpt lat="28.8372455" lon="104.8400431"><ele>367.06</ele><time>2026-03-20T20:52:44.000Z</time></trkpt>
        <trkpt lat="28.8372975" lon="104.8401099"><ele>367.06</ele><time>2026-03-20T20:53:40.000Z</time></trkpt>
        <trkpt lat="28.837357" lon="104.8402059"><ele>367.98</ele><time>2026-03-20T20:53:50.000Z</time></trkpt>
        <trkpt lat="28.8373917" lon="104.8402543"><ele>367.61</ele><time>2026-03-20T20:53:56.000Z</time></trkpt>
        <trkpt lat="28.8374448" lon="104.8403194"><ele>367.19</ele><time>2026-03-20T20:54:15.000Z</time></trkpt>
        <trkpt lat="28.8374734" lon="104.8404167"><ele>366.69</ele><time>2026-03-20T20:54:24.000Z</time></trkpt>
        <trkpt lat="28.8374853" lon="104.8405291"><ele>365.94</ele><time>2026-03-20T20:54:37.000Z</time></trkpt>
        <trkpt lat="28.8375078" lon="104.8406436"><ele>364.37</ele><time>2026-03-20T20:54:48.000Z</time></trkpt>
        <trkpt lat="28.837509" lon="104.8407598"><ele>362.18</ele><time>2026-03-20T20:54:58.000Z</time></trkpt>
        <trkpt lat="28.8375671" lon="104.8408474"><ele>360.38</ele><time>2026-03-20T20:55:10.000Z</time></trkpt>
        <trkpt lat="28.8376638" lon="104.8408465"><ele>359.77</ele><time>2026-03-20T20:55:29.000Z</time></trkpt>
        <trkpt lat="28.8377488" lon="104.8407576"><ele>359.58</ele><time>2026-03-20T20:55:38.000Z</time></trkpt>
        <trkpt lat="28.8378521" lon="104.8407232"><ele>359.34</ele><time>2026-03-20T20:55:48.000Z</time></trkpt>
        <trkpt lat="28.8379493" lon="104.8407361"><ele>359.56</ele><time>2026-03-20T20:55:58.000Z</time></trkpt>
        <trkpt lat="28.8379742" lon="104.8407448"><ele>360.17</ele><time>2026-03-20T20:56:00.000Z</time></trkpt>
        <trkpt lat="28.8380371" lon="104.8407725"><ele>360.51</ele><time>2026-03-20T20:56:14.000Z</time></trkpt>
        <trkpt lat="28.8381072" lon="104.8408377"><ele>360.39</ele><time>2026-03-20T20:56:32.000Z</time></trkpt>
        <trkpt lat="28.8381761" lon="104.8409288"><ele>359.85</ele><time>2026-03-20T20:56:42.000Z</time></trkpt>
        <trkpt lat="28.8382168" lon="104.8410302"><ele>360.22</ele><time>2026-03-20T20:56:54.000Z</time></trkpt>
        <trkpt lat="28.8382781" lon="104.8411169"><ele>362.28</ele><time>2026-03-20T20:57:26.000Z</time></trkpt>
        <trkpt lat="28.8383147" lon="104.8412272"><ele>362.08</ele><time>2026-03-20T20:57:52.000Z</time></trkpt>
        <trkpt lat="28.83835" lon="104.8413383"><ele>361.98</ele><time>2026-03-20T20:58:11.000Z</time></trkpt>
        <trkpt lat="28.838408" lon="104.8414221"><ele>360.94</ele><time>2026-03-20T20:58:26.000Z</time></trkpt>
        <trkpt lat="28.8384902" lon="104.8414615"><ele>360.64</ele><time>2026-03-20T20:58:44.000Z</time></trkpt>
        <trkpt lat="28.8385174" lon="104.8414701"><ele>361.72</ele><time>2026-03-20T20:58:46.000Z</time></trkpt>
        <trkpt lat="28.8385903" lon="104.8414762"><ele>362.35</ele><time>2026-03-20T20:59:00.000Z</time></trkpt>
        <trkpt lat="28.838678" lon="104.8415171"><ele>363.35</ele><time>2026-03-20T20:59:16.000Z</time></trkpt>
        <trkpt lat="28.8387473" lon="104.841597"><ele>362.53</ele><time>2026-03-20T20:59:26.000Z</time></trkpt>
        <trkpt lat="28.8387964" lon="104.8417005"><ele>362.06</ele><time>2026-03-20T20:59:36.000Z</time></trkpt>
        <trkpt lat="28.8388344" lon="104.8418019"><ele>361.34</ele><time>2026-03-20T20:59:58.000Z</time></trkpt>
        <trkpt lat="28.8388586" lon="104.8419066"><ele>360.78</ele><time>2026-03-20T21:00:20.000Z</time></trkpt>
        <trkpt lat="28.8388684" lon="104.8420204"><ele>358.64</ele><time>2026-03-20T21:00:41.000Z</time></trkpt>
        <trkpt lat="28.8388645" lon="104.8421299"><ele>357.33</ele><time>2026-03-20T21:00:51.000Z</time></trkpt>
        <trkpt lat="28.8388689" lon="104.8422404"><ele>356.51</ele><time>2026-03-20T21:01:03.000Z</time></trkpt>
        <trkpt lat="28.8388889" lon="104.8423497"><ele>354.83</ele><time>2026-03-20T21:01:13.000Z</time></trkpt>
        <trkpt lat="28.8389186" lon="104.8424559"><ele>354.14</ele><time>2026-03-20T21:01:23.000Z</time></trkpt>
        <trkpt lat="28.8390001" lon="104.8424778"><ele>353.29</ele><time>2026-03-20T21:01:33.000Z</time></trkpt>
        <trkpt lat="28.8390882" lon="104.8424274"><ele>353.42</ele><time>2026-03-20T21:01:44.000Z</time></trkpt>
        <trkpt lat="28.8391777" lon="104.8423454"><ele>352.63</ele><time>2026-03-20T21:01:55.000Z</time></trkpt>
        <trkpt lat="28.8392803" lon="104.8423193"><ele>351.37</ele><time>2026-03-20T21:02:05.000Z</time></trkpt>
        <trkpt lat="28.8393876" lon="104.8423341"><ele>351.56</ele><time>2026-03-20T21:02:15.000Z</time></trkpt>
        <trkpt lat="28.8394972" lon="104.8423858"><ele>350.56</ele><time>2026-03-20T21:02:32.000Z</time></trkpt>
        <trkpt lat="28.8395583" lon="104.8424786"><ele>350.36</ele><time>2026-03-20T21:02:41.000Z</time></trkpt>
        <trkpt lat="28.8395198" lon="104.842439"><ele>349.78</ele><time>2026-03-20T21:03:13.000Z</time></trkpt>
        <trkpt lat="28.8395598" lon="104.842455"><ele>348.48</ele><time>2026-03-20T21:03:31.000Z</time></trkpt>
        <trkpt lat="28.8395764" lon="104.8424555"><ele>346.2</ele><time>2026-03-20T21:03:35.000Z</time></trkpt>
        <trkpt lat="28.8396515" lon="104.8424441"><ele>342.84</ele><time>2026-03-20T21:03:43.000Z</time></trkpt>
        <trkpt lat="28.8397107" lon="104.8423702"><ele>341.97</ele><time>2026-03-20T21:03:58.000Z</time></trkpt>
        <trkpt lat="28.8397588" lon="104.8422689"><ele>342.31</ele><time>2026-03-20T21:04:09.000Z</time></trkpt>
        <trkpt lat="28.8397354" lon="104.8421626"><ele>341.82</ele><time>2026-03-20T21:04:24.000Z</time></trkpt>
        <trkpt lat="28.8397092" lon="104.8420319"><ele>341.01</ele><time>2026-03-20T21:04:35.000Z</time></trkpt>
        <trkpt lat="28.8396622" lon="104.8419278"><ele>341.26</ele><time>2026-03-20T21:04:45.000Z</time></trkpt>
        <trkpt lat="28.8395904" lon="104.8418366"><ele>341.89</ele><time>2026-03-20T21:04:55.000Z</time></trkpt>
        <trkpt lat="28.8395299" lon="104.8417471"><ele>343.75</ele><time>2026-03-20T21:05:05.000Z</time></trkpt>
        <trkpt lat="28.8395083" lon="104.8416782"><ele>345.77</ele><time>2026-03-20T21:05:21.000Z</time></trkpt>
        <trkpt lat="28.839477" lon="104.8415853"><ele>346.73</ele><time>2026-03-20T21:05:33.000Z</time></trkpt>
        <trkpt lat="28.8394486" lon="104.8414822"><ele>348.56</ele><time>2026-03-20T21:05:47.000Z</time></trkpt>
        <trkpt lat="28.8394547" lon="104.8413648"><ele>351.32</ele><time>2026-03-20T21:05:59.000Z</time></trkpt>
        <trkpt lat="28.8394925" lon="104.8412627"><ele>352.76</ele><time>2026-03-20T21:06:12.000Z</time></trkpt>
        <trkpt lat="28.8396144" lon="104.8412547"><ele>354.48</ele><time>2026-03-20T21:14:42.000Z</time></trkpt>
        <trkpt lat="28.8396993" lon="104.8412053"><ele>354.57</ele><time>2026-03-20T21:14:56.000Z</time></trkpt>
        <trkpt lat="28.8397891" lon="104.8411731"><ele>353.75</ele><time>2026-03-20T21:15:06.000Z</time></trkpt>
        <trkpt lat="28.8398509" lon="104.8410994"><ele>353.66</ele><time>2026-03-20T21:15:18.000Z</time></trkpt>
        <trkpt lat="28.8398518" lon="104.8409877"><ele>353.61</ele><time>2026-03-20T21:15:30.000Z</time></trkpt>
        <trkpt lat="28.839887" lon="104.8408899"><ele>353.19</ele><time>2026-03-20T21:15:42.000Z</time></trkpt>
        <trkpt lat="28.8399312" lon="104.8407944"><ele>354.51</ele><time>2026-03-20T21:15:52.000Z</time></trkpt>
        <trkpt lat="28.8399628" lon="104.8406929"><ele>356.62</ele><time>2026-03-20T21:16:03.000Z</time></trkpt>
        <trkpt lat="28.839923" lon="104.8405993"><ele>358.34</ele><time>2026-03-20T21:16:18.000Z</time></trkpt>
        <trkpt lat="28.8399177" lon="104.8404889"><ele>360.27</ele><time>2026-03-20T21:16:30.000Z</time></trkpt>
        <trkpt lat="28.8399625" lon="104.8403997"><ele>361.27</ele><time>2026-03-20T21:16:44.000Z</time></trkpt>
        <trkpt lat="28.8399992" lon="104.840293"><ele>362.61</ele><time>2026-03-20T21:16:54.000Z</time></trkpt>
        <trkpt lat="28.8400222" lon="104.8401798"><ele>362.89</ele><time>2026-03-20T21:17:04.000Z</time></trkpt>
        <trkpt lat="28.8400461" lon="104.8400751"><ele>363.02</ele><time>2026-03-20T21:17:14.000Z</time></trkpt>
        <trkpt lat="28.8400935" lon="104.8399836"><ele>363.2</ele><time>2026-03-20T21:17:22.000Z</time></trkpt>
        <trkpt lat="28.8401402" lon="104.8398854"><ele>363.52</ele><time>2026-03-20T21:17:32.000Z</time></trkpt>
        <trkpt lat="28.8401632" lon="104.8397775"><ele>363.65</ele><time>2026-03-20T21:17:48.000Z</time></trkpt>
        <trkpt lat="28.8401691" lon="104.8396722"><ele>363.6</ele><time>2026-03-20T21:17:58.000Z</time></trkpt>
        <trkpt lat="28.8401718" lon="104.8395534"><ele>363.52</ele><time>2026-03-20T21:18:10.000Z</time></trkpt>
        <trkpt lat="28.8401706" lon="104.839434"><ele>362.78</ele><time>2026-03-20T21:18:20.000Z</time></trkpt>
        <trkpt lat="28.8402244" lon="104.839342"><ele>362.68</ele><time>2026-03-20T21:18:30.000Z</time></trkpt>
        <trkpt lat="28.8403207" lon="104.8393029"><ele>362.88</ele><time>2026-03-20T21:18:41.000Z</time></trkpt>
        <trkpt lat="28.8404225" lon="104.8392937"><ele>362.9</ele><time>2026-03-20T21:18:54.000Z</time></trkpt>
        <trkpt lat="28.8404169" lon="104.8392284"><ele>363.68</ele><time>2026-03-20T21:19:02.000Z</time></trkpt>
        <trkpt lat="28.8404009" lon="104.8391218"><ele>364.4</ele><time>2026-03-20T21:19:12.000Z</time></trkpt>
        <trkpt lat="28.8403847" lon="104.8389972"><ele>365.5</ele><time>2026-03-20T21:19:22.000Z</time></trkpt>
        <trkpt lat="28.8403991" lon="104.8388866"><ele>367.03</ele><time>2026-03-20T21:19:30.000Z</time></trkpt>
        <trkpt lat="28.8404187" lon="104.8387826"><ele>368.45</ele><time>2026-03-20T21:19:38.000Z</time></trkpt>
        <trkpt lat="28.8404357" lon="104.8387324"><ele>369.79</ele><time>2026-03-20T21:19:44.000Z</time></trkpt>
        <trkpt lat="28.840502" lon="104.8386672"><ele>370.49</ele><time>2026-03-20T21:19:58.000Z</time></trkpt>
        <trkpt lat="28.8405383" lon="104.8386488"><ele>371.02</ele><time>2026-03-20T21:20:04.000Z</time></trkpt>
        <trkpt lat="28.8406198" lon="104.8386149"><ele>371.66</ele><time>2026-03-20T21:20:14.000Z</time></trkpt>
        <trkpt lat="28.8407165" lon="104.8385803"><ele>371.15</ele><time>2026-03-20T21:20:24.000Z</time></trkpt>
        <trkpt lat="28.840824" lon="104.83858"><ele>370.98</ele><time>2026-03-20T21:20:44.000Z</time></trkpt>
        <trkpt lat="28.8408643" lon="104.8385751"><ele>370.56</ele><time>2026-03-20T21:20:48.000Z</time></trkpt>
        <trkpt lat="28.8409463" lon="104.8385611"><ele>370.24</ele><time>2026-03-20T21:21:48.000Z</time></trkpt>
        <trkpt lat="28.840995" lon="104.8384878"><ele>371.03</ele><time>2026-03-20T21:21:58.000Z</time></trkpt>
        <trkpt lat="28.8410585" lon="104.8383994"><ele>370.75</ele><time>2026-03-20T21:22:18.000Z</time></trkpt>
        <trkpt lat="28.8411373" lon="104.8383453"><ele>370.26</ele><time>2026-03-20T21:22:30.000Z</time></trkpt>
        <trkpt lat="28.8411537" lon="104.8384284"><ele>369.96</ele><time>2026-03-20T21:22:40.000Z</time></trkpt>
        <trkpt lat="28.8411234" lon="104.8385398"><ele>370.1</ele><time>2026-03-20T21:22:50.000Z</time></trkpt>
        <trkpt lat="28.8411147" lon="104.8385907"><ele>369.98</ele><time>2026-03-20T21:22:54.000Z</time></trkpt>
        <trkpt lat="28.8411805" lon="104.8385717"><ele>369.82</ele><time>2026-03-20T21:23:07.000Z</time></trkpt>
        <trkpt lat="28.8412496" lon="104.8384894"><ele>370.49</ele><time>2026-03-20T21:23:19.000Z</time></trkpt>
        <trkpt lat="28.8413467" lon="104.8385147"><ele>371.63</ele><time>2026-03-20T21:24:40.000Z</time></trkpt>
        <trkpt lat="28.8414172" lon="104.8385963"><ele>371.5</ele><time>2026-03-20T21:25:44.000Z</time></trkpt>
        <trkpt lat="28.8414589" lon="104.8386963"><ele>372.81</ele><time>2026-03-20T21:25:52.000Z</time></trkpt>
        <trkpt lat="28.8414659" lon="104.8387341"><ele>373.41</ele><time>2026-03-20T21:25:56.000Z</time></trkpt>
        <trkpt lat="28.8414895" lon="104.8388151"><ele>372.97</ele><time>2026-03-20T21:26:14.000Z</time></trkpt>
        <trkpt lat="28.8414798" lon="104.8389227"><ele>374.51</ele><time>2026-03-20T21:26:24.000Z</time></trkpt>
        <trkpt lat="28.8414636" lon="104.8390414"><ele>375.55</ele><time>2026-03-20T21:26:36.000Z</time></trkpt>
        <trkpt lat="28.8414434" lon="104.8390971"><ele>375.33</ele><time>2026-03-20T21:26:41.000Z</time></trkpt>
        <trkpt lat="28.8414679" lon="104.8391848"><ele>375.28</ele><time>2026-03-20T21:27:14.000Z</time></trkpt>
        <trkpt lat="28.8414888" lon="104.8392986"><ele>373.85</ele><time>2026-03-20T21:27:26.000Z</time></trkpt>
        <trkpt lat="28.8414758" lon="104.8394048"><ele>372.03</ele><time>2026-03-20T21:27:34.000Z</time></trkpt>
        <trkpt lat="28.8415049" lon="104.8395128"><ele>370.32</ele><time>2026-03-20T21:27:50.000Z</time></trkpt>
        <trkpt lat="28.8415323" lon="104.8396159"><ele>369</ele><time>2026-03-20T21:28:03.000Z</time></trkpt>
        <trkpt lat="28.8415412" lon="104.8397228"><ele>367.42</ele><time>2026-03-20T21:28:13.000Z</time></trkpt>
        <trkpt lat="28.8416101" lon="104.8397776"><ele>366.17</ele><time>2026-03-20T21:28:23.000Z</time></trkpt>
        <trkpt lat="28.8416458" lon="104.8397482"><ele>364.92</ele><time>2026-03-20T21:28:30.000Z</time></trkpt>
        <trkpt lat="28.8417175" lon="104.839784"><ele>363.71</ele><time>2026-03-20T21:30:06.000Z</time></trkpt>
        <trkpt lat="28.8418097" lon="104.8398487"><ele>363.34</ele><time>2026-03-20T21:30:18.000Z</time></trkpt>
        <trkpt lat="28.841885" lon="104.839917"><ele>364.13</ele><time>2026-03-20T21:30:28.000Z</time></trkpt>
        <trkpt lat="28.8419581" lon="104.8399835"><ele>365.57</ele><time>2026-03-20T21:30:36.000Z</time></trkpt>
        <trkpt lat="28.8420456" lon="104.8400174"><ele>366.84</ele><time>2026-03-20T21:31:20.000Z</time></trkpt>
        <trkpt lat="28.8421456" lon="104.8400378"><ele>367.36</ele><time>2026-03-20T21:31:36.000Z</time></trkpt>
        <trkpt lat="28.8422435" lon="104.8400525"><ele>367.24</ele><time>2026-03-20T21:31:48.000Z</time></trkpt>
        <trkpt lat="28.8423338" lon="104.840084"><ele>365.97</ele><time>2026-03-20T21:32:04.000Z</time></trkpt>
        <trkpt lat="28.8424301" lon="104.8400731"><ele>366.01</ele><time>2026-03-20T21:32:20.000Z</time></trkpt>
        <trkpt lat="28.8425277" lon="104.8400734"><ele>366.51</ele><time>2026-03-20T21:32:36.000Z</time></trkpt>
        <trkpt lat="28.8426258" lon="104.8400898"><ele>367.08</ele><time>2026-03-20T21:32:46.000Z</time></trkpt>
        <trkpt lat="28.8427184" lon="104.8401456"><ele>367.17</ele><time>2026-03-20T21:32:58.000Z</time></trkpt>
        <trkpt lat="28.8427984" lon="104.8402205"><ele>366.96</ele><time>2026-03-20T21:33:08.000Z</time></trkpt>
        <trkpt lat="28.8428855" lon="104.8402926"><ele>367.44</ele><time>2026-03-20T21:33:20.000Z</time></trkpt>
        <trkpt lat="28.8429533" lon="104.8403755"><ele>367.98</ele><time>2026-03-20T21:33:30.000Z</time></trkpt>
        <trkpt lat="28.8430119" lon="104.8404708"><ele>368.17</ele><time>2026-03-20T21:33:40.000Z</time></trkpt>
        <trkpt lat="28.8430518" lon="104.8405726"><ele>368.1</ele><time>2026-03-20T21:33:50.000Z</time></trkpt>
        <trkpt lat="28.843098" lon="104.8406722"><ele>368.5</ele><time>2026-03-20T21:33:58.000Z</time></trkpt>
        <trkpt lat="28.8431715" lon="104.8407559"><ele>367.31</ele><time>2026-03-20T21:34:11.000Z</time></trkpt>
        <trkpt lat="28.8432579" lon="104.8408061"><ele>366.25</ele><time>2026-03-20T21:34:22.000Z</time></trkpt>
        <trkpt lat="28.8433572" lon="104.8408184"><ele>365.92</ele><time>2026-03-20T21:34:36.000Z</time></trkpt>
        <trkpt lat="28.8434668" lon="104.8408217"><ele>365.77</ele><time>2026-03-20T21:34:48.000Z</time></trkpt>
        <trkpt lat="28.8435665" lon="104.8408313"><ele>365.85</ele><time>2026-03-20T21:34:58.000Z</time></trkpt>
        <trkpt lat="28.843627" lon="104.8408775"><ele>365.89</ele><time>2026-03-20T21:35:08.000Z</time></trkpt>
        <trkpt lat="28.8436963" lon="104.8408459"><ele>365.28</ele><time>2026-03-20T21:35:28.000Z</time></trkpt>
        <trkpt lat="28.8436963" lon="104.8408459"><ele>365.28</ele><time>2026-03-20T21:35:38.000Z</time></trkpt>
      </trkseg>
  </trk>
</gpx>